<?xml version="1.0" encoding="UTF-8"?>
<gpx version="1.0" creator="Trackator" xmlns:xsi="http://www.w3.org/2001/XMLSchema-instance" xmlns="http://www.topografix.com/GPX/1/0" xmlns:topografix="http://www.topografix.com/GPX/Private/TopoGrafix/0/1" xsi:schemaLocation="http://www.topografix.com/GPX/1/0 http://www.topografix.com/GPX/1/0/gpx.xsd http://www.topografix.com/GPX/Private/TopoGrafix/0/1 http://www.topografix.com/GPX/Private/TopoGrafix/0/1/topografix.xsd">
<metadata>
<link href="http://www.trackator.com">
<text>Trackator</text>
</link>
</metadata>
<time>2013-08-12T:40:08Z</time>
<trk>
<name>Track: </name>
<desc>Canoeing-kayaking</desc>
<trkseg>
<trkpt lat="37.57529561" lon="-1.21496401">
<ele>74</ele>
<time>2013-08-12T:40:08Z</time>
</trkpt>
<trkpt lat="37.57529438" lon="-1.21496644">
<ele>74</ele>
<time>2013-08-12T20:40:10Z</time>
</trkpt>
<trkpt lat="37.57529112" lon="-1.21494247">
<ele>77</ele>
<time>2013-08-12T20:40:12Z</time>
</trkpt>
<trkpt lat="37.57528808" lon="-1.21494192">
<ele>77</ele>
<time>2013-08-12T20:40:14Z</time>
</trkpt>
<trkpt lat="37.57527842" lon="-1.21494379">
<ele>76</ele>
<time>2013-08-12T20:40:16Z</time>
</trkpt>
<trkpt lat="37.57527571" lon="-1.21494004">
<ele>77</ele>
<time>2013-08-12T20:40:18Z</time>
</trkpt>
<trkpt lat="37.57527794" lon="-1.21490957">
<ele>78</ele>
<time>2013-08-12T20:40:20Z</time>
</trkpt>
<trkpt lat="37.57527936" lon="-1.21489484">
<ele>79</ele>
<time>2013-08-12T20:40:22Z</time>
</trkpt>
<trkpt lat="37.57527862" lon="-1.21489385">
<ele>79</ele>
<time>2013-08-12T20:40:24Z</time>
</trkpt>
<trkpt lat="37.57527776" lon="-1.21489327">
<ele>79</ele>
<time>2013-08-12T20:40:26Z</time>
</trkpt>
<trkpt lat="37.57527711" lon="-1.21489416">
<ele>78</ele>
<time>2013-08-12T20:40:28Z</time>
</trkpt>
<trkpt lat="37.57528186" lon="-1.21488319">
<ele>80</ele>
<time>2013-08-12T20:40:30Z</time>
</trkpt>
<trkpt lat="37.57528261" lon="-1.21488417">
<ele>80</ele>
<time>2013-08-12T20:40:32Z</time>
</trkpt>
<trkpt lat="37.57528406" lon="-1.21488635">
<ele>80</ele>
<time>2013-08-12T20:40:34Z</time>
</trkpt>
<trkpt lat="37.57528393" lon="-1.21488624">
<ele>80</ele>
<time>2013-08-12T20:40:36Z</time>
</trkpt>
<trkpt lat="37.57528465" lon="-1.21488746">
<ele>80</ele>
<time>2013-08-12T20:40:38Z</time>
</trkpt>
<trkpt lat="37.5752856" lon="-1.21488895">
<ele>79</ele>
<time>2013-08-12T20:40:40Z</time>
</trkpt>
<trkpt lat="37.57528569" lon="-1.21488967">
<ele>79</ele>
<time>2013-08-12T20:40:42Z</time>
</trkpt>
<trkpt lat="37.57528724" lon="-1.21488581">
<ele>80</ele>
<time>2013-08-12T20:40:44Z</time>
</trkpt>
<trkpt lat="37.57529007" lon="-1.21488469">
<ele>80</ele>
<time>2013-08-12T20:40:46Z</time>
</trkpt>
<trkpt lat="37.57529129" lon="-1.21488507">
<ele>80</ele>
<time>2013-08-12T20:40:48Z</time>
</trkpt>
<trkpt lat="37.57529475" lon="-1.21488042">
<ele>80</ele>
<time>2013-08-12T20:40:50Z</time>
</trkpt>
<trkpt lat="37.57529468" lon="-1.21488068">
<ele>80</ele>
<time>2013-08-12T20:40:52Z</time>
</trkpt>
<trkpt lat="37.57529551" lon="-1.21487385">
<ele>80</ele>
<time>2013-08-12T20:40:54Z</time>
</trkpt>
<trkpt lat="37.5752943" lon="-1.21487096">
<ele>80</ele>
<time>2013-08-12T20:40:56Z</time>
</trkpt>
<trkpt lat="37.57529298" lon="-1.21487102">
<ele>80</ele>
<time>2013-08-12T20:40:58Z</time>
</trkpt>
<trkpt lat="37.57529253" lon="-1.2148716">
<ele>80</ele>
<time>2013-08-12T20:41:00Z</time>
</trkpt>
<trkpt lat="37.57528907" lon="-1.21487038">
<ele>79</ele>
<time>2013-08-12T20:41:02Z</time>
</trkpt>
<trkpt lat="37.57528924" lon="-1.21487034">
<ele>79</ele>
<time>2013-08-12T20:41:04Z</time>
</trkpt>
<trkpt lat="37.57528918" lon="-1.21487035">
<ele>79</ele>
<time>2013-08-12T20:41:06Z</time>
</trkpt>
<trkpt lat="37.57528925" lon="-1.21487008">
<ele>79</ele>
<time>2013-08-12T20:41:08Z</time>
</trkpt>
<trkpt lat="37.575289" lon="-1.21487039">
<ele>78</ele>
<time>2013-08-12T20:41:10Z</time>
</trkpt>
<trkpt lat="37.57528886" lon="-1.21487051">
<ele>78</ele>
<time>2013-08-12T20:41:12Z</time>
</trkpt>
<trkpt lat="37.57528835" lon="-1.21487171">
<ele>78</ele>
<time>2013-08-12T20:41:14Z</time>
</trkpt>
<trkpt lat="37.57528831" lon="-1.21487169">
<ele>78</ele>
<time>2013-08-12T20:41:16Z</time>
</trkpt>
<trkpt lat="37.57528798" lon="-1.21487232">
<ele>78</ele>
<time>2013-08-12T20:41:18Z</time>
</trkpt>
<trkpt lat="37.57528771" lon="-1.21487259">
<ele>78</ele>
<time>2013-08-12T20:41:20Z</time>
</trkpt>
<trkpt lat="37.57528719" lon="-1.2148732">
<ele>78</ele>
<time>2013-08-12T20:41:22Z</time>
</trkpt>
<trkpt lat="37.57528691" lon="-1.2148732">
<ele>78</ele>
<time>2013-08-12T20:41:24Z</time>
</trkpt>
<trkpt lat="37.57515447" lon="-1.21483454">
<ele>58</ele>
<time>2013-08-12T20:41:26Z</time>
</trkpt>
<trkpt lat="37.57514471" lon="-1.21483048">
<ele>57</ele>
<time>2013-08-12T20:41:28Z</time>
</trkpt>
<trkpt lat="37.57512364" lon="-1.21482475">
<ele>56</ele>
<time>2013-08-12T20:41:30Z</time>
</trkpt>
<trkpt lat="37.57510179" lon="-1.21479891">
<ele>56</ele>
<time>2013-08-12T20:41:32Z</time>
</trkpt>
<trkpt lat="37.57509272" lon="-1.21478602">
<ele>55</ele>
<time>2013-08-12T20:41:34Z</time>
</trkpt>
<trkpt lat="37.57507329" lon="-1.21475947">
<ele>57</ele>
<time>2013-08-12T20:41:36Z</time>
</trkpt>
<trkpt lat="37.57505217" lon="-1.21473429">
<ele>57</ele>
<time>2013-08-12T20:41:38Z</time>
</trkpt>
<trkpt lat="37.57502874" lon="-1.21470819">
<ele>58</ele>
<time>2013-08-12T20:41:40Z</time>
</trkpt>
<trkpt lat="37.57500414" lon="-1.21468348">
<ele>59</ele>
<time>2013-08-12T20:41:42Z</time>
</trkpt>
<trkpt lat="37.57498148" lon="-1.21465563">
<ele>58</ele>
<time>2013-08-12T20:41:44Z</time>
</trkpt>
<trkpt lat="37.57495596" lon="-1.21463197">
<ele>56</ele>
<time>2013-08-12T20:41:46Z</time>
</trkpt>
<trkpt lat="37.57493709" lon="-1.21460925">
<ele>57</ele>
<time>2013-08-12T20:41:48Z</time>
</trkpt>
<trkpt lat="37.57491875" lon="-1.21457937">
<ele>56</ele>
<time>2013-08-12T20:41:50Z</time>
</trkpt>
<trkpt lat="37.57490418" lon="-1.21454774">
<ele>56</ele>
<time>2013-08-12T20:41:52Z</time>
</trkpt>
<trkpt lat="37.57488664" lon="-1.21451174">
<ele>55</ele>
<time>2013-08-12T20:41:54Z</time>
</trkpt>
<trkpt lat="37.57486908" lon="-1.21448043">
<ele>56</ele>
<time>2013-08-12T20:41:56Z</time>
</trkpt>
<trkpt lat="37.57484979" lon="-1.21445041">
<ele>56</ele>
<time>2013-08-12T20:41:58Z</time>
</trkpt>
<trkpt lat="37.57483286" lon="-1.21442818">
<ele>55</ele>
<time>2013-08-12T20:42:00Z</time>
</trkpt>
<trkpt lat="37.57482051" lon="-1.21441022">
<ele>55</ele>
<time>2013-08-12T20:42:02Z</time>
</trkpt>
<trkpt lat="37.57480302" lon="-1.21438689">
<ele>55</ele>
<time>2013-08-12T20:42:04Z</time>
</trkpt>
<trkpt lat="37.57478071" lon="-1.21436212">
<ele>55</ele>
<time>2013-08-12T20:42:06Z</time>
</trkpt>
<trkpt lat="37.57476023" lon="-1.21434148">
<ele>55</ele>
<time>2013-08-12T20:42:08Z</time>
</trkpt>
<trkpt lat="37.57474402" lon="-1.21432663">
<ele>53</ele>
<time>2013-08-12T20:42:10Z</time>
</trkpt>
<trkpt lat="37.57472547" lon="-1.21431276">
<ele>53</ele>
<time>2013-08-12T20:42:12Z</time>
</trkpt>
<trkpt lat="37.57470628" lon="-1.21429247">
<ele>53</ele>
<time>2013-08-12T20:42:14Z</time>
</trkpt>
<trkpt lat="37.57468542" lon="-1.21425958">
<ele>53</ele>
<time>2013-08-12T20:42:16Z</time>
</trkpt>
<trkpt lat="37.57466574" lon="-1.21422101">
<ele>53</ele>
<time>2013-08-12T20:42:18Z</time>
</trkpt>
<trkpt lat="37.57464678" lon="-1.21418281">
<ele>53</ele>
<time>2013-08-12T20:42:20Z</time>
</trkpt>
<trkpt lat="37.57462951" lon="-1.21414937">
<ele>53</ele>
<time>2013-08-12T20:42:22Z</time>
</trkpt>
<trkpt lat="37.57461718" lon="-1.21412444">
<ele>53</ele>
<time>2013-08-12T20:42:24Z</time>
</trkpt>
<trkpt lat="37.57460494" lon="-1.21410372">
<ele>53</ele>
<time>2013-08-12T20:42:26Z</time>
</trkpt>
<trkpt lat="37.57458956" lon="-1.21407688">
<ele>52</ele>
<time>2013-08-12T20:42:28Z</time>
</trkpt>
<trkpt lat="37.57457134" lon="-1.21404701">
<ele>53</ele>
<time>2013-08-12T20:42:30Z</time>
</trkpt>
<trkpt lat="37.57455394" lon="-1.2140091">
<ele>53</ele>
<time>2013-08-12T20:42:32Z</time>
</trkpt>
<trkpt lat="37.5745368" lon="-1.21397844">
<ele>52</ele>
<time>2013-08-12T20:42:34Z</time>
</trkpt>
<trkpt lat="37.57452513" lon="-1.2139561">
<ele>52</ele>
<time>2013-08-12T20:42:36Z</time>
</trkpt>
<trkpt lat="37.57451147" lon="-1.21393116">
<ele>51</ele>
<time>2013-08-12T20:42:38Z</time>
</trkpt>
<trkpt lat="37.57449711" lon="-1.21390512">
<ele>51</ele>
<time>2013-08-12T20:42:40Z</time>
</trkpt>
<trkpt lat="37.57448247" lon="-1.21387965">
<ele>51</ele>
<time>2013-08-12T20:42:42Z</time>
</trkpt>
<trkpt lat="37.57446644" lon="-1.2138515">
<ele>51</ele>
<time>2013-08-12T20:42:44Z</time>
</trkpt>
<trkpt lat="37.57444792" lon="-1.21382297">
<ele>51</ele>
<time>2013-08-12T20:42:46Z</time>
</trkpt>
<trkpt lat="37.57442711" lon="-1.21379459">
<ele>52</ele>
<time>2013-08-12T20:42:48Z</time>
</trkpt>
<trkpt lat="37.5744085" lon="-1.21376786">
<ele>52</ele>
<time>2013-08-12T20:42:50Z</time>
</trkpt>
<trkpt lat="37.57439097" lon="-1.21374">
<ele>50</ele>
<time>2013-08-12T20:42:52Z</time>
</trkpt>
<trkpt lat="37.57437301" lon="-1.21370722">
<ele>51</ele>
<time>2013-08-12T20:42:54Z</time>
</trkpt>
<trkpt lat="37.57435794" lon="-1.21367995">
<ele>50</ele>
<time>2013-08-12T20:42:56Z</time>
</trkpt>
<trkpt lat="37.57434703" lon="-1.21365129">
<ele>51</ele>
<time>2013-08-12T20:42:58Z</time>
</trkpt>
<trkpt lat="37.5743338" lon="-1.21362588">
<ele>51</ele>
<time>2013-08-12T20:43:00Z</time>
</trkpt>
<trkpt lat="37.57432039" lon="-1.21360455">
<ele>51</ele>
<time>2013-08-12T20:43:02Z</time>
</trkpt>
<trkpt lat="37.57430477" lon="-1.21359">
<ele>51</ele>
<time>2013-08-12T20:43:04Z</time>
</trkpt>
<trkpt lat="37.57428631" lon="-1.2135704">
<ele>51</ele>
<time>2013-08-12T20:43:06Z</time>
</trkpt>
<trkpt lat="37.57426696" lon="-1.21354535">
<ele>50</ele>
<time>2013-08-12T20:43:08Z</time>
</trkpt>
<trkpt lat="37.57424294" lon="-1.21351188">
<ele>51</ele>
<time>2013-08-12T20:43:10Z</time>
</trkpt>
<trkpt lat="37.57422497" lon="-1.2134815">
<ele>51</ele>
<time>2013-08-12T20:43:12Z</time>
</trkpt>
<trkpt lat="37.57420999" lon="-1.21344886">
<ele>51</ele>
<time>2013-08-12T20:43:14Z</time>
</trkpt>
<trkpt lat="37.57419631" lon="-1.21342202">
<ele>51</ele>
<time>2013-08-12T20:43:16Z</time>
</trkpt>
<trkpt lat="37.57418627" lon="-1.2134001">
<ele>50</ele>
<time>2013-08-12T20:43:18Z</time>
</trkpt>
<trkpt lat="37.57417508" lon="-1.21338218">
<ele>50</ele>
<time>2013-08-12T20:43:20Z</time>
</trkpt>
<trkpt lat="37.57415916" lon="-1.21336981">
<ele>50</ele>
<time>2013-08-12T20:43:22Z</time>
</trkpt>
<trkpt lat="37.5741419" lon="-1.21335783">
<ele>50</ele>
<time>2013-08-12T20:43:24Z</time>
</trkpt>
<trkpt lat="37.5741263" lon="-1.21333859">
<ele>51</ele>
<time>2013-08-12T20:43:26Z</time>
</trkpt>
<trkpt lat="37.57411007" lon="-1.2133133">
<ele>50</ele>
<time>2013-08-12T20:43:28Z</time>
</trkpt>
<trkpt lat="37.57409295" lon="-1.21328902">
<ele>51</ele>
<time>2013-08-12T20:43:30Z</time>
</trkpt>
<trkpt lat="37.57407311" lon="-1.21326449">
<ele>50</ele>
<time>2013-08-12T20:43:32Z</time>
</trkpt>
<trkpt lat="37.57405605" lon="-1.21324641">
<ele>51</ele>
<time>2013-08-12T20:43:34Z</time>
</trkpt>
<trkpt lat="37.57403392" lon="-1.21323068">
<ele>51</ele>
<time>2013-08-12T20:43:36Z</time>
</trkpt>
<trkpt lat="37.57401078" lon="-1.213209">
<ele>51</ele>
<time>2013-08-12T20:43:38Z</time>
</trkpt>
<trkpt lat="37.57398657" lon="-1.21317927">
<ele>52</ele>
<time>2013-08-12T20:43:40Z</time>
</trkpt>
<trkpt lat="37.57396772" lon="-1.21314622">
<ele>51</ele>
<time>2013-08-12T20:43:42Z</time>
</trkpt>
<trkpt lat="37.57395862" lon="-1.21311746">
<ele>51</ele>
<time>2013-08-12T20:43:44Z</time>
</trkpt>
<trkpt lat="37.57394884" lon="-1.21309785">
<ele>51</ele>
<time>2013-08-12T20:43:46Z</time>
</trkpt>
<trkpt lat="37.57393951" lon="-1.21308637">
<ele>51</ele>
<time>2013-08-12T20:43:48Z</time>
</trkpt>
<trkpt lat="37.57392852" lon="-1.2130658">
<ele>50</ele>
<time>2013-08-12T20:43:50Z</time>
</trkpt>
<trkpt lat="37.57391657" lon="-1.21304765">
<ele>50</ele>
<time>2013-08-12T20:43:52Z</time>
</trkpt>
<trkpt lat="37.57390066" lon="-1.21302453">
<ele>50</ele>
<time>2013-08-12T20:43:54Z</time>
</trkpt>
<trkpt lat="37.57388453" lon="-1.21300341">
<ele>49</ele>
<time>2013-08-12T20:43:56Z</time>
</trkpt>
<trkpt lat="37.5738705" lon="-1.21297913">
<ele>48</ele>
<time>2013-08-12T20:43:58Z</time>
</trkpt>
<trkpt lat="37.57385509" lon="-1.21295068">
<ele>48</ele>
<time>2013-08-12T20:44:00Z</time>
</trkpt>
<trkpt lat="37.5738436" lon="-1.21291277">
<ele>48</ele>
<time>2013-08-12T20:44:02Z</time>
</trkpt>
<trkpt lat="37.57382982" lon="-1.21287601">
<ele>48</ele>
<time>2013-08-12T20:44:04Z</time>
</trkpt>
<trkpt lat="37.57381864" lon="-1.21284123">
<ele>48</ele>
<time>2013-08-12T20:44:06Z</time>
</trkpt>
<trkpt lat="37.5738086" lon="-1.21280989">
<ele>49</ele>
<time>2013-08-12T20:44:08Z</time>
</trkpt>
<trkpt lat="37.57379349" lon="-1.21278283">
<ele>49</ele>
<time>2013-08-12T20:44:10Z</time>
</trkpt>
<trkpt lat="37.57377749" lon="-1.21275474">
<ele>48</ele>
<time>2013-08-12T20:44:12Z</time>
</trkpt>
<trkpt lat="37.57376136" lon="-1.21271549">
<ele>49</ele>
<time>2013-08-12T20:44:14Z</time>
</trkpt>
<trkpt lat="37.57374757" lon="-1.21267432">
<ele>48</ele>
<time>2013-08-12T20:44:16Z</time>
</trkpt>
<trkpt lat="37.57372898" lon="-1.21264132">
<ele>48</ele>
<time>2013-08-12T20:44:18Z</time>
</trkpt>
<trkpt lat="37.57371508" lon="-1.21260774">
<ele>47</ele>
<time>2013-08-12T20:44:20Z</time>
</trkpt>
<trkpt lat="37.57370166" lon="-1.21257847">
<ele>47</ele>
<time>2013-08-12T20:44:22Z</time>
</trkpt>
<trkpt lat="37.57368644" lon="-1.21255432">
<ele>46</ele>
<time>2013-08-12T20:44:24Z</time>
</trkpt>
<trkpt lat="37.57367831" lon="-1.21253344">
<ele>45</ele>
<time>2013-08-12T20:44:26Z</time>
</trkpt>
<trkpt lat="37.57367109" lon="-1.21251445">
<ele>44</ele>
<time>2013-08-12T20:44:28Z</time>
</trkpt>
<trkpt lat="37.57365774" lon="-1.21249077">
<ele>43</ele>
<time>2013-08-12T20:44:30Z</time>
</trkpt>
<trkpt lat="37.57363509" lon="-1.21245997">
<ele>42</ele>
<time>2013-08-12T20:44:32Z</time>
</trkpt>
<trkpt lat="37.57361583" lon="-1.21243288">
<ele>42</ele>
<time>2013-08-12T20:44:34Z</time>
</trkpt>
<trkpt lat="37.57359745" lon="-1.21240871">
<ele>42</ele>
<time>2013-08-12T20:44:36Z</time>
</trkpt>
<trkpt lat="37.57357931" lon="-1.21238125">
<ele>41</ele>
<time>2013-08-12T20:44:38Z</time>
</trkpt>
<trkpt lat="37.57356417" lon="-1.2123554">
<ele>42</ele>
<time>2013-08-12T20:44:40Z</time>
</trkpt>
<trkpt lat="37.57355667" lon="-1.21233393">
<ele>41</ele>
<time>2013-08-12T20:44:42Z</time>
</trkpt>
<trkpt lat="37.57354382" lon="-1.21231033">
<ele>41</ele>
<time>2013-08-12T20:44:44Z</time>
</trkpt>
<trkpt lat="37.57353326" lon="-1.21228875">
<ele>41</ele>
<time>2013-08-12T20:44:46Z</time>
</trkpt>
<trkpt lat="37.57351972" lon="-1.21225763">
<ele>41</ele>
<time>2013-08-12T20:44:48Z</time>
</trkpt>
<trkpt lat="37.57351597" lon="-1.21222607">
<ele>41</ele>
<time>2013-08-12T20:44:50Z</time>
</trkpt>
<trkpt lat="37.57351697" lon="-1.21219863">
<ele>41</ele>
<time>2013-08-12T20:44:52Z</time>
</trkpt>
<trkpt lat="37.57351895" lon="-1.21218465">
<ele>43</ele>
<time>2013-08-12T20:44:54Z</time>
</trkpt>
<trkpt lat="37.57352534" lon="-1.21217196">
<ele>44</ele>
<time>2013-08-12T20:44:56Z</time>
</trkpt>
<trkpt lat="37.57353747" lon="-1.21216047">
<ele>44</ele>
<time>2013-08-12T20:44:58Z</time>
</trkpt>
<trkpt lat="37.57355138" lon="-1.2121451">
<ele>45</ele>
<time>2013-08-12T20:45:00Z</time>
</trkpt>
<trkpt lat="37.57356948" lon="-1.21212967">
<ele>46</ele>
<time>2013-08-12T20:45:02Z</time>
</trkpt>
<trkpt lat="37.57358937" lon="-1.21210098">
<ele>47</ele>
<time>2013-08-12T20:45:04Z</time>
</trkpt>
<trkpt lat="37.57361" lon="-1.21207184">
<ele>48</ele>
<time>2013-08-12T20:45:06Z</time>
</trkpt>
<trkpt lat="37.57362609" lon="-1.21203808">
<ele>48</ele>
<time>2013-08-12T20:45:08Z</time>
</trkpt>
<trkpt lat="37.57364542" lon="-1.21200471">
<ele>47</ele>
<time>2013-08-12T20:45:10Z</time>
</trkpt>
<trkpt lat="37.57366796" lon="-1.21197635">
<ele>47</ele>
<time>2013-08-12T20:45:12Z</time>
</trkpt>
<trkpt lat="37.57369276" lon="-1.21196539">
<ele>48</ele>
<time>2013-08-12T20:45:14Z</time>
</trkpt>
<trkpt lat="37.5737217" lon="-1.21196649">
<ele>48</ele>
<time>2013-08-12T20:45:16Z</time>
</trkpt>
<trkpt lat="37.57375549" lon="-1.2119747">
<ele>47</ele>
<time>2013-08-12T20:45:18Z</time>
</trkpt>
<trkpt lat="37.57378255" lon="-1.21199129">
<ele>49</ele>
<time>2013-08-12T20:45:20Z</time>
</trkpt>
<trkpt lat="37.57380346" lon="-1.21200632">
<ele>50</ele>
<time>2013-08-12T20:45:22Z</time>
</trkpt>
<trkpt lat="37.57381395" lon="-1.21201854">
<ele>49</ele>
<time>2013-08-12T20:45:24Z</time>
</trkpt>
<trkpt lat="37.57382335" lon="-1.21202616">
<ele>49</ele>
<time>2013-08-12T20:45:26Z</time>
</trkpt>
<trkpt lat="37.57383693" lon="-1.21202191">
<ele>50</ele>
<time>2013-08-12T20:45:28Z</time>
</trkpt>
<trkpt lat="37.5738551" lon="-1.21201892">
<ele>50</ele>
<time>2013-08-12T20:45:30Z</time>
</trkpt>
<trkpt lat="37.5738718" lon="-1.21202167">
<ele>50</ele>
<time>2013-08-12T20:45:32Z</time>
</trkpt>
<trkpt lat="37.5738923" lon="-1.21202623">
<ele>50</ele>
<time>2013-08-12T20:45:34Z</time>
</trkpt>
<trkpt lat="37.57391051" lon="-1.21203187">
<ele>51</ele>
<time>2013-08-12T20:45:36Z</time>
</trkpt>
<trkpt lat="37.57392603" lon="-1.21204116">
<ele>51</ele>
<time>2013-08-12T20:45:38Z</time>
</trkpt>
<trkpt lat="37.5739422" lon="-1.21205062">
<ele>51</ele>
<time>2013-08-12T20:45:40Z</time>
</trkpt>
<trkpt lat="37.57396057" lon="-1.21205761">
<ele>51</ele>
<time>2013-08-12T20:45:42Z</time>
</trkpt>
<trkpt lat="37.57398138" lon="-1.21206378">
<ele>51</ele>
<time>2013-08-12T20:45:44Z</time>
</trkpt>
<trkpt lat="37.57400302" lon="-1.21207096">
<ele>51</ele>
<time>2013-08-12T20:45:46Z</time>
</trkpt>
<trkpt lat="37.57402082" lon="-1.2120786">
<ele>51</ele>
<time>2013-08-12T20:45:48Z</time>
</trkpt>
<trkpt lat="37.57403364" lon="-1.21208399">
<ele>51</ele>
<time>2013-08-12T20:45:50Z</time>
</trkpt>
<trkpt lat="37.57404521" lon="-1.21208779">
<ele>51</ele>
<time>2013-08-12T20:45:52Z</time>
</trkpt>
<trkpt lat="37.57405705" lon="-1.21208872">
<ele>51</ele>
<time>2013-08-12T20:45:54Z</time>
</trkpt>
<trkpt lat="37.5740697" lon="-1.21209001">
<ele>51</ele>
<time>2013-08-12T20:45:56Z</time>
</trkpt>
<trkpt lat="37.57408217" lon="-1.21209623">
<ele>51</ele>
<time>2013-08-12T20:45:58Z</time>
</trkpt>
<trkpt lat="37.57409249" lon="-1.21207598">
<ele>51</ele>
<time>2013-08-12T20:46:00Z</time>
</trkpt>
<trkpt lat="37.57406384" lon="-1.21206244">
<ele>51</ele>
<time>2013-08-12T20:46:02Z</time>
</trkpt>
<trkpt lat="37.57403857" lon="-1.21205816">
<ele>51</ele>
<time>2013-08-12T20:46:04Z</time>
</trkpt>
<trkpt lat="37.57401982" lon="-1.21205019">
<ele>52</ele>
<time>2013-08-12T20:46:06Z</time>
</trkpt>
<trkpt lat="37.57400307" lon="-1.21204506">
<ele>52</ele>
<time>2013-08-12T20:46:08Z</time>
</trkpt>
<trkpt lat="37.57399517" lon="-1.21204987">
<ele>52</ele>
<time>2013-08-12T20:46:10Z</time>
</trkpt>
<trkpt lat="37.57398911" lon="-1.2121494">
<ele>53</ele>
<time>2013-08-12T20:46:21Z</time>
</trkpt>
<trkpt lat="37.57398468" lon="-1.21215007">
<ele>53</ele>
<time>2013-08-12T20:46:22Z</time>
</trkpt>
<trkpt lat="37.57398133" lon="-1.21216667">
<ele>52</ele>
<time>2013-08-12T20:46:24Z</time>
</trkpt>
<trkpt lat="37.57396605" lon="-1.21215843">
<ele>52</ele>
<time>2013-08-12T20:46:26Z</time>
</trkpt>
<trkpt lat="37.57395245" lon="-1.2121546">
<ele>52</ele>
<time>2013-08-12T20:46:28Z</time>
</trkpt>
<trkpt lat="37.57393217" lon="-1.21213084">
<ele>52</ele>
<time>2013-08-12T20:46:30Z</time>
</trkpt>
<trkpt lat="37.57391076" lon="-1.21210828">
<ele>52</ele>
<time>2013-08-12T20:46:32Z</time>
</trkpt>
<trkpt lat="37.57389597" lon="-1.21208988">
<ele>52</ele>
<time>2013-08-12T20:46:34Z</time>
</trkpt>
<trkpt lat="37.57388847" lon="-1.21206886">
<ele>51</ele>
<time>2013-08-12T20:46:36Z</time>
</trkpt>
<trkpt lat="37.57396984" lon="-1.21202775">
<ele>51</ele>
<time>2013-08-12T20:49:04Z</time>
</trkpt>
<trkpt lat="37.57396698" lon="-1.21203668">
<ele>51</ele>
<time>2013-08-12T20:49:05Z</time>
</trkpt>
<trkpt lat="37.57396206" lon="-1.21204172">
<ele>51</ele>
<time>2013-08-12T20:49:07Z</time>
</trkpt>
<trkpt lat="37.57394524" lon="-1.21203276">
<ele>50</ele>
<time>2013-08-12T20:49:09Z</time>
</trkpt>
<trkpt lat="37.57392344" lon="-1.21202029">
<ele>49</ele>
<time>2013-08-12T20:49:11Z</time>
</trkpt>
<trkpt lat="37.57391016" lon="-1.21199337">
<ele>49</ele>
<time>2013-08-12T20:49:13Z</time>
</trkpt>
<trkpt lat="37.57388998" lon="-1.21196556">
<ele>49</ele>
<time>2013-08-12T20:49:15Z</time>
</trkpt>
<trkpt lat="37.57386389" lon="-1.21194804">
<ele>49</ele>
<time>2013-08-12T20:49:17Z</time>
</trkpt>
<trkpt lat="37.57384658" lon="-1.21192009">
<ele>51</ele>
<time>2013-08-12T20:49:19Z</time>
</trkpt>
<trkpt lat="37.5738278" lon="-1.21188864">
<ele>51</ele>
<time>2013-08-12T20:49:21Z</time>
</trkpt>
<trkpt lat="37.57380344" lon="-1.21185914">
<ele>50</ele>
<time>2013-08-12T20:49:23Z</time>
</trkpt>
<trkpt lat="37.5737749" lon="-1.21182836">
<ele>52</ele>
<time>2013-08-12T20:49:25Z</time>
</trkpt>
<trkpt lat="37.57374779" lon="-1.21180472">
<ele>51</ele>
<time>2013-08-12T20:49:27Z</time>
</trkpt>
<trkpt lat="37.57372009" lon="-1.21178611">
<ele>51</ele>
<time>2013-08-12T20:49:29Z</time>
</trkpt>
<trkpt lat="37.57369326" lon="-1.21176676">
<ele>51</ele>
<time>2013-08-12T20:49:31Z</time>
</trkpt>
<trkpt lat="37.57366893" lon="-1.21174135">
<ele>51</ele>
<time>2013-08-12T20:49:33Z</time>
</trkpt>
<trkpt lat="37.57364394" lon="-1.21171663">
<ele>51</ele>
<time>2013-08-12T20:49:35Z</time>
</trkpt>
<trkpt lat="37.57361539" lon="-1.2116927">
<ele>51</ele>
<time>2013-08-12T20:49:37Z</time>
</trkpt>
<trkpt lat="37.57357938" lon="-1.21166648">
<ele>51</ele>
<time>2013-08-12T20:49:39Z</time>
</trkpt>
<trkpt lat="37.57355092" lon="-1.21163145">
<ele>52</ele>
<time>2013-08-12T20:49:41Z</time>
</trkpt>
<trkpt lat="37.57351651" lon="-1.21158998">
<ele>52</ele>
<time>2013-08-12T20:49:43Z</time>
</trkpt>
<trkpt lat="37.57348845" lon="-1.21154876">
<ele>53</ele>
<time>2013-08-12T20:49:45Z</time>
</trkpt>
<trkpt lat="37.57346141" lon="-1.21151777">
<ele>53</ele>
<time>2013-08-12T20:49:47Z</time>
</trkpt>
<trkpt lat="37.57344445" lon="-1.21149144">
<ele>52</ele>
<time>2013-08-12T20:49:49Z</time>
</trkpt>
<trkpt lat="37.57343616" lon="-1.21146125">
<ele>53</ele>
<time>2013-08-12T20:49:51Z</time>
</trkpt>
<trkpt lat="37.57342619" lon="-1.21144357">
<ele>53</ele>
<time>2013-08-12T20:49:53Z</time>
</trkpt>
<trkpt lat="37.57341407" lon="-1.21142049">
<ele>54</ele>
<time>2013-08-12T20:49:55Z</time>
</trkpt>
<trkpt lat="37.57339704" lon="-1.21139112">
<ele>54</ele>
<time>2013-08-12T20:49:57Z</time>
</trkpt>
<trkpt lat="37.5733769" lon="-1.21136409">
<ele>55</ele>
<time>2013-08-12T20:49:59Z</time>
</trkpt>
<trkpt lat="37.57335545" lon="-1.21134566">
<ele>55</ele>
<time>2013-08-12T20:50:01Z</time>
</trkpt>
<trkpt lat="37.57333295" lon="-1.21133123">
<ele>55</ele>
<time>2013-08-12T20:50:03Z</time>
</trkpt>
<trkpt lat="37.57331078" lon="-1.21131148">
<ele>55</ele>
<time>2013-08-12T20:50:05Z</time>
</trkpt>
<trkpt lat="37.57328874" lon="-1.21129202">
<ele>54</ele>
<time>2013-08-12T20:50:07Z</time>
</trkpt>
<trkpt lat="37.57326486" lon="-1.21127098">
<ele>54</ele>
<time>2013-08-12T20:50:09Z</time>
</trkpt>
<trkpt lat="37.57324461" lon="-1.21124643">
<ele>54</ele>
<time>2013-08-12T20:50:11Z</time>
</trkpt>
<trkpt lat="37.57322137" lon="-1.21121301">
<ele>55</ele>
<time>2013-08-12T20:50:13Z</time>
</trkpt>
<trkpt lat="37.57319572" lon="-1.21117929">
<ele>54</ele>
<time>2013-08-12T20:50:15Z</time>
</trkpt>
<trkpt lat="37.57316379" lon="-1.21114591">
<ele>56</ele>
<time>2013-08-12T20:50:17Z</time>
</trkpt>
<trkpt lat="37.57313463" lon="-1.21112103">
<ele>55</ele>
<time>2013-08-12T20:50:19Z</time>
</trkpt>
<trkpt lat="37.57310969" lon="-1.21109031">
<ele>54</ele>
<time>2013-08-12T20:50:21Z</time>
</trkpt>
<trkpt lat="37.57308879" lon="-1.21106946">
<ele>54</ele>
<time>2013-08-12T20:50:23Z</time>
</trkpt>
<trkpt lat="37.57307373" lon="-1.21104302">
<ele>54</ele>
<time>2013-08-12T20:50:25Z</time>
</trkpt>
<trkpt lat="37.57305867" lon="-1.21101482">
<ele>54</ele>
<time>2013-08-12T20:50:27Z</time>
</trkpt>
<trkpt lat="37.57304123" lon="-1.210988">
<ele>53</ele>
<time>2013-08-12T20:50:29Z</time>
</trkpt>
<trkpt lat="37.57301982" lon="-1.21096631">
<ele>54</ele>
<time>2013-08-12T20:50:31Z</time>
</trkpt>
<trkpt lat="37.57299238" lon="-1.21095092">
<ele>54</ele>
<time>2013-08-12T20:50:33Z</time>
</trkpt>
<trkpt lat="37.57296481" lon="-1.21093418">
<ele>55</ele>
<time>2013-08-12T20:50:35Z</time>
</trkpt>
<trkpt lat="37.57294225" lon="-1.21091634">
<ele>55</ele>
<time>2013-08-12T20:50:37Z</time>
</trkpt>
<trkpt lat="37.57291976" lon="-1.21090087">
<ele>54</ele>
<time>2013-08-12T20:50:39Z</time>
</trkpt>
<trkpt lat="37.57290292" lon="-1.21087947">
<ele>53</ele>
<time>2013-08-12T20:50:41Z</time>
</trkpt>
<trkpt lat="37.5728913" lon="-1.21085797">
<ele>53</ele>
<time>2013-08-12T20:50:43Z</time>
</trkpt>
<trkpt lat="37.57288064" lon="-1.2108403">
<ele>51</ele>
<time>2013-08-12T20:50:45Z</time>
</trkpt>
<trkpt lat="37.57286571" lon="-1.21082009">
<ele>51</ele>
<time>2013-08-12T20:50:47Z</time>
</trkpt>
<trkpt lat="37.57285099" lon="-1.21080131">
<ele>51</ele>
<time>2013-08-12T20:50:49Z</time>
</trkpt>
<trkpt lat="37.57283444" lon="-1.21078219">
<ele>51</ele>
<time>2013-08-12T20:50:51Z</time>
</trkpt>
<trkpt lat="37.57281822" lon="-1.21076756">
<ele>51</ele>
<time>2013-08-12T20:50:53Z</time>
</trkpt>
<trkpt lat="37.57280242" lon="-1.21075293">
<ele>51</ele>
<time>2013-08-12T20:50:55Z</time>
</trkpt>
<trkpt lat="37.57277959" lon="-1.21073282">
<ele>51</ele>
<time>2013-08-12T20:50:57Z</time>
</trkpt>
<trkpt lat="37.57275728" lon="-1.21070708">
<ele>51</ele>
<time>2013-08-12T20:50:59Z</time>
</trkpt>
<trkpt lat="37.57273179" lon="-1.21067989">
<ele>51</ele>
<time>2013-08-12T20:51:01Z</time>
</trkpt>
<trkpt lat="37.57271173" lon="-1.21064929">
<ele>51</ele>
<time>2013-08-12T20:51:03Z</time>
</trkpt>
<trkpt lat="37.57269465" lon="-1.21062173">
<ele>52</ele>
<time>2013-08-12T20:51:05Z</time>
</trkpt>
<trkpt lat="37.57267498" lon="-1.21059222">
<ele>53</ele>
<time>2013-08-12T20:51:07Z</time>
</trkpt>
<trkpt lat="37.57265492" lon="-1.21056439">
<ele>53</ele>
<time>2013-08-12T20:51:09Z</time>
</trkpt>
<trkpt lat="37.5726378" lon="-1.21054201">
<ele>53</ele>
<time>2013-08-12T20:51:11Z</time>
</trkpt>
<trkpt lat="37.57262367" lon="-1.21051899">
<ele>53</ele>
<time>2013-08-12T20:51:13Z</time>
</trkpt>
<trkpt lat="37.57260811" lon="-1.2104916">
<ele>54</ele>
<time>2013-08-12T20:51:15Z</time>
</trkpt>
<trkpt lat="37.5725931" lon="-1.21046093">
<ele>54</ele>
<time>2013-08-12T20:51:17Z</time>
</trkpt>
<trkpt lat="37.57257568" lon="-1.21042717">
<ele>55</ele>
<time>2013-08-12T20:51:19Z</time>
</trkpt>
<trkpt lat="37.57255722" lon="-1.21039753">
<ele>55</ele>
<time>2013-08-12T20:51:21Z</time>
</trkpt>
<trkpt lat="37.57253873" lon="-1.21036265">
<ele>55</ele>
<time>2013-08-12T20:51:23Z</time>
</trkpt>
<trkpt lat="37.57251861" lon="-1.2103382">
<ele>54</ele>
<time>2013-08-12T20:51:25Z</time>
</trkpt>
<trkpt lat="37.5725007" lon="-1.21031797">
<ele>53</ele>
<time>2013-08-12T20:51:27Z</time>
</trkpt>
<trkpt lat="37.57248591" lon="-1.21029389">
<ele>53</ele>
<time>2013-08-12T20:51:29Z</time>
</trkpt>
<trkpt lat="37.57247487" lon="-1.21026814">
<ele>52</ele>
<time>2013-08-12T20:51:31Z</time>
</trkpt>
<trkpt lat="37.57245719" lon="-1.21024567">
<ele>53</ele>
<time>2013-08-12T20:51:33Z</time>
</trkpt>
<trkpt lat="37.57244126" lon="-1.21022808">
<ele>53</ele>
<time>2013-08-12T20:51:35Z</time>
</trkpt>
<trkpt lat="37.57242782" lon="-1.21021278">
<ele>53</ele>
<time>2013-08-12T20:51:37Z</time>
</trkpt>
<trkpt lat="37.57241036" lon="-1.21019445">
<ele>53</ele>
<time>2013-08-12T20:51:39Z</time>
</trkpt>
<trkpt lat="37.5723988" lon="-1.21018135">
<ele>52</ele>
<time>2013-08-12T20:51:41Z</time>
</trkpt>
<trkpt lat="37.57238491" lon="-1.21016966">
<ele>51</ele>
<time>2013-08-12T20:51:43Z</time>
</trkpt>
<trkpt lat="37.57236863" lon="-1.21015694">
<ele>52</ele>
<time>2013-08-12T20:51:45Z</time>
</trkpt>
<trkpt lat="37.57234973" lon="-1.21013756">
<ele>51</ele>
<time>2013-08-12T20:51:47Z</time>
</trkpt>
<trkpt lat="37.5723301" lon="-1.21011918">
<ele>51</ele>
<time>2013-08-12T20:51:49Z</time>
</trkpt>
<trkpt lat="37.57230621" lon="-1.2100981">
<ele>51</ele>
<time>2013-08-12T20:51:51Z</time>
</trkpt>
<trkpt lat="37.57227995" lon="-1.21007402">
<ele>50</ele>
<time>2013-08-12T20:51:53Z</time>
</trkpt>
<trkpt lat="37.57225286" lon="-1.21004932">
<ele>51</ele>
<time>2013-08-12T20:51:55Z</time>
</trkpt>
<trkpt lat="37.57222759" lon="-1.21002173">
<ele>50</ele>
<time>2013-08-12T20:51:57Z</time>
</trkpt>
<trkpt lat="37.57220596" lon="-1.20999761">
<ele>50</ele>
<time>2013-08-12T20:51:59Z</time>
</trkpt>
<trkpt lat="37.57218318" lon="-1.20997806">
<ele>49</ele>
<time>2013-08-12T20:52:01Z</time>
</trkpt>
<trkpt lat="37.57216213" lon="-1.20995355">
<ele>49</ele>
<time>2013-08-12T20:52:03Z</time>
</trkpt>
<trkpt lat="37.57213737" lon="-1.20992516">
<ele>49</ele>
<time>2013-08-12T20:52:05Z</time>
</trkpt>
<trkpt lat="37.57211624" lon="-1.20990121">
<ele>49</ele>
<time>2013-08-12T20:52:07Z</time>
</trkpt>
<trkpt lat="37.5720948" lon="-1.20988742">
<ele>48</ele>
<time>2013-08-12T20:52:09Z</time>
</trkpt>
<trkpt lat="37.57207502" lon="-1.20987407">
<ele>47</ele>
<time>2013-08-12T20:52:11Z</time>
</trkpt>
<trkpt lat="37.57204914" lon="-1.2098574">
<ele>47</ele>
<time>2013-08-12T20:52:13Z</time>
</trkpt>
<trkpt lat="37.57202884" lon="-1.20983148">
<ele>47</ele>
<time>2013-08-12T20:52:15Z</time>
</trkpt>
<trkpt lat="37.57200859" lon="-1.20980392">
<ele>47</ele>
<time>2013-08-12T20:52:17Z</time>
</trkpt>
<trkpt lat="37.57198951" lon="-1.2097832">
<ele>47</ele>
<time>2013-08-12T20:52:19Z</time>
</trkpt>
<trkpt lat="37.57197093" lon="-1.20976074">
<ele>47</ele>
<time>2013-08-12T20:52:21Z</time>
</trkpt>
<trkpt lat="37.5719456" lon="-1.20974243">
<ele>47</ele>
<time>2013-08-12T20:52:23Z</time>
</trkpt>
<trkpt lat="37.57191673" lon="-1.20971949">
<ele>47</ele>
<time>2013-08-12T20:52:25Z</time>
</trkpt>
<trkpt lat="37.57189184" lon="-1.20969311">
<ele>47</ele>
<time>2013-08-12T20:52:27Z</time>
</trkpt>
<trkpt lat="37.57186702" lon="-1.20966884">
<ele>46</ele>
<time>2013-08-12T20:52:29Z</time>
</trkpt>
<trkpt lat="37.57184891" lon="-1.20965164">
<ele>46</ele>
<time>2013-08-12T20:52:31Z</time>
</trkpt>
<trkpt lat="37.57183538" lon="-1.20963204">
<ele>48</ele>
<time>2013-08-12T20:52:33Z</time>
</trkpt>
<trkpt lat="37.57182242" lon="-1.20961338">
<ele>48</ele>
<time>2013-08-12T20:52:35Z</time>
</trkpt>
<trkpt lat="37.57181333" lon="-1.20960051">
<ele>48</ele>
<time>2013-08-12T20:52:37Z</time>
</trkpt>
<trkpt lat="37.57180358" lon="-1.20958024">
<ele>49</ele>
<time>2013-08-12T20:52:39Z</time>
</trkpt>
<trkpt lat="37.57179281" lon="-1.20956778">
<ele>48</ele>
<time>2013-08-12T20:52:41Z</time>
</trkpt>
<trkpt lat="37.57177074" lon="-1.20955459">
<ele>49</ele>
<time>2013-08-12T20:52:43Z</time>
</trkpt>
<trkpt lat="37.57174587" lon="-1.20954456">
<ele>49</ele>
<time>2013-08-12T20:52:45Z</time>
</trkpt>
<trkpt lat="37.57172744" lon="-1.20953153">
<ele>49</ele>
<time>2013-08-12T20:52:47Z</time>
</trkpt>
<trkpt lat="37.57170343" lon="-1.20952003">
<ele>49</ele>
<time>2013-08-12T20:52:49Z</time>
</trkpt>
<trkpt lat="37.57167962" lon="-1.20950748">
<ele>50</ele>
<time>2013-08-12T20:52:51Z</time>
</trkpt>
<trkpt lat="37.57165048" lon="-1.20949237">
<ele>50</ele>
<time>2013-08-12T20:52:53Z</time>
</trkpt>
<trkpt lat="37.57162049" lon="-1.20946655">
<ele>51</ele>
<time>2013-08-12T20:52:55Z</time>
</trkpt>
<trkpt lat="37.57159522" lon="-1.20943909">
<ele>52</ele>
<time>2013-08-12T20:52:57Z</time>
</trkpt>
<trkpt lat="37.57156697" lon="-1.2094171">
<ele>52</ele>
<time>2013-08-12T20:52:59Z</time>
</trkpt>
<trkpt lat="37.57153946" lon="-1.20939401">
<ele>52</ele>
<time>2013-08-12T20:53:01Z</time>
</trkpt>
<trkpt lat="37.57151048" lon="-1.20936802">
<ele>53</ele>
<time>2013-08-12T20:53:03Z</time>
</trkpt>
<trkpt lat="37.57148491" lon="-1.20934012">
<ele>52</ele>
<time>2013-08-12T20:53:05Z</time>
</trkpt>
<trkpt lat="37.57145863" lon="-1.20931605">
<ele>52</ele>
<time>2013-08-12T20:53:07Z</time>
</trkpt>
<trkpt lat="37.57143749" lon="-1.20929162">
<ele>51</ele>
<time>2013-08-12T20:53:09Z</time>
</trkpt>
<trkpt lat="37.57142696" lon="-1.20926594">
<ele>51</ele>
<time>2013-08-12T20:53:11Z</time>
</trkpt>
<trkpt lat="37.57142003" lon="-1.20924081">
<ele>51</ele>
<time>2013-08-12T20:53:13Z</time>
</trkpt>
<trkpt lat="37.57140718" lon="-1.20921319">
<ele>50</ele>
<time>2013-08-12T20:53:15Z</time>
</trkpt>
<trkpt lat="37.57138788" lon="-1.20918541">
<ele>50</ele>
<time>2013-08-12T20:53:17Z</time>
</trkpt>
<trkpt lat="37.57136136" lon="-1.20916335">
<ele>50</ele>
<time>2013-08-12T20:53:19Z</time>
</trkpt>
<trkpt lat="37.57133337" lon="-1.20914556">
<ele>49</ele>
<time>2013-08-12T20:53:21Z</time>
</trkpt>
<trkpt lat="37.57130806" lon="-1.20912393">
<ele>49</ele>
<time>2013-08-12T20:53:23Z</time>
</trkpt>
<trkpt lat="37.57128908" lon="-1.20910073">
<ele>49</ele>
<time>2013-08-12T20:53:25Z</time>
</trkpt>
<trkpt lat="37.57128009" lon="-1.20907719">
<ele>49</ele>
<time>2013-08-12T20:53:27Z</time>
</trkpt>
<trkpt lat="37.57127605" lon="-1.20905642">
<ele>49</ele>
<time>2013-08-12T20:53:29Z</time>
</trkpt>
<trkpt lat="37.57127013" lon="-1.20903217">
<ele>49</ele>
<time>2013-08-12T20:53:31Z</time>
</trkpt>
<trkpt lat="37.57126114" lon="-1.20900995">
<ele>49</ele>
<time>2013-08-12T20:53:33Z</time>
</trkpt>
<trkpt lat="37.57124979" lon="-1.20898335">
<ele>49</ele>
<time>2013-08-12T20:53:35Z</time>
</trkpt>
<trkpt lat="37.57123571" lon="-1.20895774">
<ele>49</ele>
<time>2013-08-12T20:53:37Z</time>
</trkpt>
<trkpt lat="37.5712202" lon="-1.20893186">
<ele>49</ele>
<time>2013-08-12T20:53:39Z</time>
</trkpt>
<trkpt lat="37.57121207" lon="-1.20889732">
<ele>49</ele>
<time>2013-08-12T20:53:41Z</time>
</trkpt>
<trkpt lat="37.57121384" lon="-1.20886283">
<ele>49</ele>
<time>2013-08-12T20:53:43Z</time>
</trkpt>
<trkpt lat="37.57122134" lon="-1.20883081">
<ele>49</ele>
<time>2013-08-12T20:53:45Z</time>
</trkpt>
<trkpt lat="37.57124935" lon="-1.20881327">
<ele>49</ele>
<time>2013-08-12T20:53:47Z</time>
</trkpt>
<trkpt lat="37.5712753" lon="-1.20879704">
<ele>49</ele>
<time>2013-08-12T20:53:49Z</time>
</trkpt>
<trkpt lat="37.57130151" lon="-1.20878399">
<ele>49</ele>
<time>2013-08-12T20:53:51Z</time>
</trkpt>
<trkpt lat="37.57132153" lon="-1.20878181">
<ele>49</ele>
<time>2013-08-12T20:53:53Z</time>
</trkpt>
<trkpt lat="37.57133996" lon="-1.20877491">
<ele>49</ele>
<time>2013-08-12T20:53:55Z</time>
</trkpt>
<trkpt lat="37.57135083" lon="-1.20878382">
<ele>48</ele>
<time>2013-08-12T20:53:57Z</time>
</trkpt>
<trkpt lat="37.57136013" lon="-1.2087997">
<ele>48</ele>
<time>2013-08-12T20:53:59Z</time>
</trkpt>
<trkpt lat="37.57136737" lon="-1.20880706">
<ele>48</ele>
<time>2013-08-12T20:54:01Z</time>
</trkpt>
<trkpt lat="37.57137446" lon="-1.20880611">
<ele>48</ele>
<time>2013-08-12T20:54:03Z</time>
</trkpt>
<trkpt lat="37.57138018" lon="-1.20879992">
<ele>48</ele>
<time>2013-08-12T20:54:05Z</time>
</trkpt>
<trkpt lat="37.5713873" lon="-1.20880558">
<ele>48</ele>
<time>2013-08-12T20:54:07Z</time>
</trkpt>
<trkpt lat="37.57139549" lon="-1.20882564">
<ele>48</ele>
<time>2013-08-12T20:54:09Z</time>
</trkpt>
<trkpt lat="37.5714122" lon="-1.20884621">
<ele>48</ele>
<time>2013-08-12T20:54:11Z</time>
</trkpt>
<trkpt lat="37.57141999" lon="-1.20885261">
<ele>48</ele>
<time>2013-08-12T20:54:13Z</time>
</trkpt>
<trkpt lat="37.57139896" lon="-1.20885907">
<ele>48</ele>
<time>2013-08-12T20:54:15Z</time>
</trkpt>
<trkpt lat="37.57138472" lon="-1.20886539">
<ele>48</ele>
<time>2013-08-12T20:54:17Z</time>
</trkpt>
<trkpt lat="37.57137683" lon="-1.20887591">
<ele>48</ele>
<time>2013-08-12T20:54:19Z</time>
</trkpt>
<trkpt lat="37.571373" lon="-1.20888071">
<ele>48</ele>
<time>2013-08-12T20:54:21Z</time>
</trkpt>
<trkpt lat="37.57135448" lon="-1.20888642">
<ele>48</ele>
<time>2013-08-12T20:54:23Z</time>
</trkpt>
<trkpt lat="37.57133898" lon="-1.20889055">
<ele>48</ele>
<time>2013-08-12T20:54:25Z</time>
</trkpt>
<trkpt lat="37.57130085" lon="-1.20916689">
<ele>48</ele>
<time>2013-08-12T20:54:27Z</time>
</trkpt>
<trkpt lat="37.57129882" lon="-1.20912826">
<ele>48</ele>
<time>2013-08-12T20:54:29Z</time>
</trkpt>
<trkpt lat="37.5712937" lon="-1.20914257">
<ele>49</ele>
<time>2013-08-12T20:54:31Z</time>
</trkpt>
<trkpt lat="37.57129115" lon="-1.20915629">
<ele>49</ele>
<time>2013-08-12T20:54:33Z</time>
</trkpt>
<trkpt lat="37.57127327" lon="-1.20916394">
<ele>49</ele>
<time>2013-08-12T20:54:35Z</time>
</trkpt>
<trkpt lat="37.5712597" lon="-1.20914588">
<ele>49</ele>
<time>2013-08-12T20:54:37Z</time>
</trkpt>
<trkpt lat="37.57125931" lon="-1.20912391">
<ele>49</ele>
<time>2013-08-12T20:54:39Z</time>
</trkpt>
<trkpt lat="37.57124167" lon="-1.20913626">
<ele>49</ele>
<time>2013-08-12T20:54:41Z</time>
</trkpt>
<trkpt lat="37.57123649" lon="-1.20911719">
<ele>49</ele>
<time>2013-08-12T20:54:43Z</time>
</trkpt>
<trkpt lat="37.57123614" lon="-1.20907948">
<ele>49</ele>
<time>2013-08-12T20:54:45Z</time>
</trkpt>
<trkpt lat="37.57123885" lon="-1.20902645">
<ele>49</ele>
<time>2013-08-12T20:54:47Z</time>
</trkpt>
<trkpt lat="37.57123508" lon="-1.20898194">
<ele>49</ele>
<time>2013-08-12T20:54:49Z</time>
</trkpt>
<trkpt lat="37.57122393" lon="-1.20893961">
<ele>49</ele>
<time>2013-08-12T20:54:51Z</time>
</trkpt>
<trkpt lat="37.57121434" lon="-1.20890412">
<ele>49</ele>
<time>2013-08-12T20:54:53Z</time>
</trkpt>
<trkpt lat="37.57120927" lon="-1.20886809">
<ele>49</ele>
<time>2013-08-12T20:54:55Z</time>
</trkpt>
<trkpt lat="37.5712174" lon="-1.20883553">
<ele>49</ele>
<time>2013-08-12T20:54:57Z</time>
</trkpt>
<trkpt lat="37.57123401" lon="-1.20880965">
<ele>49</ele>
<time>2013-08-12T20:54:59Z</time>
</trkpt>
<trkpt lat="37.57123032" lon="-1.20878306">
<ele>49</ele>
<time>2013-08-12T20:55:01Z</time>
</trkpt>
<trkpt lat="37.57121587" lon="-1.20876766">
<ele>49</ele>
<time>2013-08-12T20:55:03Z</time>
</trkpt>
<trkpt lat="37.57120687" lon="-1.20873027">
<ele>49</ele>
<time>2013-08-12T20:55:05Z</time>
</trkpt>
<trkpt lat="37.57119811" lon="-1.20870315">
<ele>49</ele>
<time>2013-08-12T20:55:07Z</time>
</trkpt>
<trkpt lat="37.57119111" lon="-1.20867639">
<ele>49</ele>
<time>2013-08-12T20:55:09Z</time>
</trkpt>
<trkpt lat="37.57118512" lon="-1.20865007">
<ele>49</ele>
<time>2013-08-12T20:55:11Z</time>
</trkpt>
<trkpt lat="37.57118069" lon="-1.20863443">
<ele>49</ele>
<time>2013-08-12T20:55:13Z</time>
</trkpt>
<trkpt lat="37.57117714" lon="-1.20862334">
<ele>49</ele>
<time>2013-08-12T20:55:15Z</time>
</trkpt>
<trkpt lat="37.57117158" lon="-1.20861215">
<ele>49</ele>
<time>2013-08-12T20:55:17Z</time>
</trkpt>
<trkpt lat="37.57115469" lon="-1.20860263">
<ele>48</ele>
<time>2013-08-12T20:55:19Z</time>
</trkpt>
<trkpt lat="37.57113905" lon="-1.20858653">
<ele>48</ele>
<time>2013-08-12T20:55:21Z</time>
</trkpt>
<trkpt lat="37.57112643" lon="-1.2085804">
<ele>48</ele>
<time>2013-08-12T20:55:23Z</time>
</trkpt>
<trkpt lat="37.57113457" lon="-1.20859705">
<ele>48</ele>
<time>2013-08-12T20:55:25Z</time>
</trkpt>
<trkpt lat="37.57115321" lon="-1.2086302">
<ele>48</ele>
<time>2013-08-12T20:55:27Z</time>
</trkpt>
<trkpt lat="37.57116484" lon="-1.20864691">
<ele>48</ele>
<time>2013-08-12T20:55:29Z</time>
</trkpt>
<trkpt lat="37.57116746" lon="-1.20865351">
<ele>48</ele>
<time>2013-08-12T20:55:31Z</time>
</trkpt>
<trkpt lat="37.5711676" lon="-1.20864784">
<ele>48</ele>
<time>2013-08-12T20:55:33Z</time>
</trkpt>
<trkpt lat="37.5711801" lon="-1.20864408">
<ele>48</ele>
<time>2013-08-12T20:55:35Z</time>
</trkpt>
<trkpt lat="37.57120356" lon="-1.20864369">
<ele>48</ele>
<time>2013-08-12T20:55:37Z</time>
</trkpt>
<trkpt lat="37.571221" lon="-1.2086456">
<ele>48</ele>
<time>2013-08-12T20:55:39Z</time>
</trkpt>
<trkpt lat="37.57123131" lon="-1.20864202">
<ele>48</ele>
<time>2013-08-12T20:55:41Z</time>
</trkpt>
<trkpt lat="37.57122143" lon="-1.20862872">
<ele>48</ele>
<time>2013-08-12T20:55:43Z</time>
</trkpt>
<trkpt lat="37.57121205" lon="-1.20861596">
<ele>48</ele>
<time>2013-08-12T20:55:45Z</time>
</trkpt>
<trkpt lat="37.57120524" lon="-1.20860474">
<ele>48</ele>
<time>2013-08-12T20:55:47Z</time>
</trkpt>
<trkpt lat="37.57120511" lon="-1.20859465">
<ele>48</ele>
<time>2013-08-12T20:55:49Z</time>
</trkpt>
<trkpt lat="37.57120519" lon="-1.20858488">
<ele>48</ele>
<time>2013-08-12T20:55:51Z</time>
</trkpt>
<trkpt lat="37.57120648" lon="-1.20857799">
<ele>48</ele>
<time>2013-08-12T20:55:53Z</time>
</trkpt>
<trkpt lat="37.57121343" lon="-1.20857899">
<ele>49</ele>
<time>2013-08-12T20:55:55Z</time>
</trkpt>
<trkpt lat="37.57122575" lon="-1.2085858">
<ele>49</ele>
<time>2013-08-12T20:55:57Z</time>
</trkpt>
<trkpt lat="37.57123452" lon="-1.20859667">
<ele>49</ele>
<time>2013-08-12T20:55:59Z</time>
</trkpt>
<trkpt lat="37.57123354" lon="-1.20860052">
<ele>49</ele>
<time>2013-08-12T20:56:01Z</time>
</trkpt>
<trkpt lat="37.57122505" lon="-1.2085746">
<ele>49</ele>
<time>2013-08-12T20:56:03Z</time>
</trkpt>
<trkpt lat="37.57122731" lon="-1.20853863">
<ele>49</ele>
<time>2013-08-12T20:56:05Z</time>
</trkpt>
<trkpt lat="37.57123358" lon="-1.20851097">
<ele>49</ele>
<time>2013-08-12T20:56:07Z</time>
</trkpt>
<trkpt lat="37.57124368" lon="-1.20849386">
<ele>49</ele>
<time>2013-08-12T20:56:09Z</time>
</trkpt>
<trkpt lat="37.57126046" lon="-1.20847561">
<ele>49</ele>
<time>2013-08-12T20:56:11Z</time>
</trkpt>
<trkpt lat="37.57146501" lon="-1.2083805">
<ele>50</ele>
<time>2013-08-12T20:56:35Z</time>
</trkpt>
<trkpt lat="37.57146132" lon="-1.20839962">
<ele>50</ele>
<time>2013-08-12T20:56:36Z</time>
</trkpt>
<trkpt lat="37.57147775" lon="-1.20843578">
<ele>50</ele>
<time>2013-08-12T20:56:38Z</time>
</trkpt>
<trkpt lat="37.57149158" lon="-1.20844372">
<ele>51</ele>
<time>2013-08-12T20:56:40Z</time>
</trkpt>
<trkpt lat="37.57150452" lon="-1.20845436">
<ele>49</ele>
<time>2013-08-12T20:56:42Z</time>
</trkpt>
<trkpt lat="37.57150771" lon="-1.20847017">
<ele>50</ele>
<time>2013-08-12T20:56:44Z</time>
</trkpt>
<trkpt lat="37.57150461" lon="-1.20847794">
<ele>51</ele>
<time>2013-08-12T20:56:46Z</time>
</trkpt>
<trkpt lat="37.57149297" lon="-1.20845843">
<ele>47</ele>
<time>2013-08-12T20:56:48Z</time>
</trkpt>
<trkpt lat="37.5714683" lon="-1.2084475">
<ele>46</ele>
<time>2013-08-12T20:56:50Z</time>
</trkpt>
<trkpt lat="37.57144872" lon="-1.20843409">
<ele>46</ele>
<time>2013-08-12T20:56:52Z</time>
</trkpt>
<trkpt lat="37.57144027" lon="-1.20841434">
<ele>47</ele>
<time>2013-08-12T20:56:54Z</time>
</trkpt>
<trkpt lat="37.57144226" lon="-1.20838602">
<ele>48</ele>
<time>2013-08-12T20:56:56Z</time>
</trkpt>
<trkpt lat="37.57144856" lon="-1.20835017">
<ele>49</ele>
<time>2013-08-12T20:56:58Z</time>
</trkpt>
<trkpt lat="37.57145354" lon="-1.20831211">
<ele>50</ele>
<time>2013-08-12T20:57:00Z</time>
</trkpt>
<trkpt lat="37.57145701" lon="-1.20827116">
<ele>49</ele>
<time>2013-08-12T20:57:02Z</time>
</trkpt>
<trkpt lat="37.57146666" lon="-1.20822816">
<ele>50</ele>
<time>2013-08-12T20:57:04Z</time>
</trkpt>
<trkpt lat="37.571476" lon="-1.20819211">
<ele>49</ele>
<time>2013-08-12T20:57:06Z</time>
</trkpt>
<trkpt lat="37.57148451" lon="-1.208163">
<ele>48</ele>
<time>2013-08-12T20:57:08Z</time>
</trkpt>
<trkpt lat="37.57149079" lon="-1.20813522">
<ele>48</ele>
<time>2013-08-12T20:57:10Z</time>
</trkpt>
<trkpt lat="37.57123078" lon="-1.20817921">
<ele>50</ele>
<time>2013-08-12T20:57:38Z</time>
</trkpt>
<trkpt lat="37.57121102" lon="-1.20819158">
<ele>50</ele>
<time>2013-08-12T20:57:39Z</time>
</trkpt>
<trkpt lat="37.57117771" lon="-1.20822155">
<ele>50</ele>
<time>2013-08-12T20:57:41Z</time>
</trkpt>
<trkpt lat="37.57116217" lon="-1.20826373">
<ele>49</ele>
<time>2013-08-12T20:57:43Z</time>
</trkpt>
<trkpt lat="37.57115343" lon="-1.2082877">
<ele>49</ele>
<time>2013-08-12T20:57:45Z</time>
</trkpt>
<trkpt lat="37.57118101" lon="-1.20828275">
<ele>49</ele>
<time>2013-08-12T20:57:47Z</time>
</trkpt>
<trkpt lat="37.5712275" lon="-1.20827705">
<ele>49</ele>
<time>2013-08-12T20:57:49Z</time>
</trkpt>
<trkpt lat="37.5712734" lon="-1.20827262">
<ele>49</ele>
<time>2013-08-12T20:57:51Z</time>
</trkpt>
<trkpt lat="37.57130655" lon="-1.20826849">
<ele>48</ele>
<time>2013-08-12T20:57:53Z</time>
</trkpt>
<trkpt lat="37.57132071" lon="-1.20826189">
<ele>48</ele>
<time>2013-08-12T20:57:55Z</time>
</trkpt>
<trkpt lat="37.5713288" lon="-1.20826561">
<ele>48</ele>
<time>2013-08-12T20:57:57Z</time>
</trkpt>
<trkpt lat="37.57133046" lon="-1.20828591">
<ele>48</ele>
<time>2013-08-12T20:57:59Z</time>
</trkpt>
<trkpt lat="37.57132452" lon="-1.20830828">
<ele>49</ele>
<time>2013-08-12T20:58:01Z</time>
</trkpt>
<trkpt lat="37.57131035" lon="-1.20834776">
<ele>51</ele>
<time>2013-08-12T20:58:03Z</time>
</trkpt>
<trkpt lat="37.57129217" lon="-1.20838756">
<ele>51</ele>
<time>2013-08-12T20:58:05Z</time>
</trkpt>
<trkpt lat="37.57128028" lon="-1.20842294">
<ele>51</ele>
<time>2013-08-12T20:58:07Z</time>
</trkpt>
<trkpt lat="37.5712734" lon="-1.2084571">
<ele>52</ele>
<time>2013-08-12T20:58:09Z</time>
</trkpt>
<trkpt lat="37.57127412" lon="-1.20848288">
<ele>53</ele>
<time>2013-08-12T20:58:11Z</time>
</trkpt>
<trkpt lat="37.5712603" lon="-1.2085214">
<ele>53</ele>
<time>2013-08-12T20:58:13Z</time>
</trkpt>
<trkpt lat="37.57124045" lon="-1.20856676">
<ele>54</ele>
<time>2013-08-12T20:58:15Z</time>
</trkpt>
<trkpt lat="37.57122631" lon="-1.20861789">
<ele>54</ele>
<time>2013-08-12T20:58:17Z</time>
</trkpt>
<trkpt lat="37.5712212" lon="-1.20866098">
<ele>54</ele>
<time>2013-08-12T20:58:19Z</time>
</trkpt>
<trkpt lat="37.57121537" lon="-1.2086977">
<ele>55</ele>
<time>2013-08-12T20:58:21Z</time>
</trkpt>
<trkpt lat="37.57121004" lon="-1.2087341">
<ele>55</ele>
<time>2013-08-12T20:58:23Z</time>
</trkpt>
<trkpt lat="37.57120776" lon="-1.20875276">
<ele>55</ele>
<time>2013-08-12T20:58:25Z</time>
</trkpt>
<trkpt lat="37.57120296" lon="-1.2087709">
<ele>56</ele>
<time>2013-08-12T20:58:27Z</time>
</trkpt>
<trkpt lat="37.57119707" lon="-1.20879512">
<ele>56</ele>
<time>2013-08-12T20:58:29Z</time>
</trkpt>
<trkpt lat="37.57118641" lon="-1.20882226">
<ele>58</ele>
<time>2013-08-12T20:58:31Z</time>
</trkpt>
<trkpt lat="37.5711735" lon="-1.20884248">
<ele>57</ele>
<time>2013-08-12T20:58:33Z</time>
</trkpt>
<trkpt lat="37.57115387" lon="-1.20885943">
<ele>58</ele>
<time>2013-08-12T20:58:35Z</time>
</trkpt>
<trkpt lat="37.57113722" lon="-1.20887901">
<ele>60</ele>
<time>2013-08-12T20:58:37Z</time>
</trkpt>
<trkpt lat="37.57112178" lon="-1.20888931">
<ele>59</ele>
<time>2013-08-12T20:58:39Z</time>
</trkpt>
<trkpt lat="37.57110713" lon="-1.20889335">
<ele>60</ele>
<time>2013-08-12T20:58:41Z</time>
</trkpt>
<trkpt lat="37.57109378" lon="-1.20889803">
<ele>59</ele>
<time>2013-08-12T20:58:43Z</time>
</trkpt>
<trkpt lat="37.57107732" lon="-1.20890893">
<ele>58</ele>
<time>2013-08-12T20:58:45Z</time>
</trkpt>
<trkpt lat="37.57106254" lon="-1.20891804">
<ele>58</ele>
<time>2013-08-12T20:58:47Z</time>
</trkpt>
<trkpt lat="37.57105249" lon="-1.20892118">
<ele>58</ele>
<time>2013-08-12T20:58:49Z</time>
</trkpt>
<trkpt lat="37.57105543" lon="-1.2089235">
<ele>57</ele>
<time>2013-08-12T20:58:51Z</time>
</trkpt>
<trkpt lat="37.57105921" lon="-1.20892733">
<ele>57</ele>
<time>2013-08-12T20:58:53Z</time>
</trkpt>
<trkpt lat="37.5710625" lon="-1.20893451">
<ele>57</ele>
<time>2013-08-12T20:58:55Z</time>
</trkpt>
<trkpt lat="37.57105554" lon="-1.20893381">
<ele>55</ele>
<time>2013-08-12T20:58:57Z</time>
</trkpt>
<trkpt lat="37.57104531" lon="-1.20894329">
<ele>55</ele>
<time>2013-08-12T20:58:59Z</time>
</trkpt>
<trkpt lat="37.57103738" lon="-1.20895021">
<ele>54</ele>
<time>2013-08-12T20:59:01Z</time>
</trkpt>
<trkpt lat="37.57102734" lon="-1.20894744">
<ele>54</ele>
<time>2013-08-12T20:59:03Z</time>
</trkpt>
<trkpt lat="37.57101461" lon="-1.20893957">
<ele>54</ele>
<time>2013-08-12T20:59:05Z</time>
</trkpt>
<trkpt lat="37.57098998" lon="-1.20891654">
<ele>53</ele>
<time>2013-08-12T20:59:07Z</time>
</trkpt>
<trkpt lat="37.57096536" lon="-1.20890432">
<ele>53</ele>
<time>2013-08-12T20:59:09Z</time>
</trkpt>
<trkpt lat="37.5709438" lon="-1.20888812">
<ele>54</ele>
<time>2013-08-12T20:59:11Z</time>
</trkpt>
<trkpt lat="37.57092619" lon="-1.20887921">
<ele>54</ele>
<time>2013-08-12T20:59:13Z</time>
</trkpt>
<trkpt lat="37.57090807" lon="-1.208873">
<ele>54</ele>
<time>2013-08-12T20:59:15Z</time>
</trkpt>
<trkpt lat="37.57089602" lon="-1.20886741">
<ele>54</ele>
<time>2013-08-12T20:59:17Z</time>
</trkpt>
<trkpt lat="37.5708873" lon="-1.20885329">
<ele>53</ele>
<time>2013-08-12T20:59:19Z</time>
</trkpt>
<trkpt lat="37.57088025" lon="-1.20883575">
<ele>53</ele>
<time>2013-08-12T20:59:21Z</time>
</trkpt>
<trkpt lat="37.57086654" lon="-1.20882528">
<ele>53</ele>
<time>2013-08-12T20:59:23Z</time>
</trkpt>
<trkpt lat="37.57085545" lon="-1.20881471">
<ele>53</ele>
<time>2013-08-12T20:59:25Z</time>
</trkpt>
<trkpt lat="37.57084214" lon="-1.20879053">
<ele>52</ele>
<time>2013-08-12T20:59:27Z</time>
</trkpt>
<trkpt lat="37.57082653" lon="-1.20876549">
<ele>53</ele>
<time>2013-08-12T20:59:29Z</time>
</trkpt>
<trkpt lat="37.57081388" lon="-1.20874345">
<ele>53</ele>
<time>2013-08-12T20:59:31Z</time>
</trkpt>
<trkpt lat="37.57081053" lon="-1.20871874">
<ele>54</ele>
<time>2013-08-12T20:59:33Z</time>
</trkpt>
<trkpt lat="37.57080464" lon="-1.20869703">
<ele>54</ele>
<time>2013-08-12T20:59:35Z</time>
</trkpt>
<trkpt lat="37.57080088" lon="-1.20867422">
<ele>55</ele>
<time>2013-08-12T20:59:37Z</time>
</trkpt>
<trkpt lat="37.57080149" lon="-1.2086551">
<ele>55</ele>
<time>2013-08-12T20:59:39Z</time>
</trkpt>
<trkpt lat="37.57080367" lon="-1.20862604">
<ele>55</ele>
<time>2013-08-12T20:59:41Z</time>
</trkpt>
<trkpt lat="37.57080552" lon="-1.20859589">
<ele>55</ele>
<time>2013-08-12T20:59:43Z</time>
</trkpt>
<trkpt lat="37.57081066" lon="-1.20856138">
<ele>54</ele>
<time>2013-08-12T20:59:45Z</time>
</trkpt>
<trkpt lat="37.57080358" lon="-1.20852831">
<ele>53</ele>
<time>2013-08-12T20:59:47Z</time>
</trkpt>
<trkpt lat="37.5707931" lon="-1.20849521">
<ele>53</ele>
<time>2013-08-12T20:59:49Z</time>
</trkpt>
<trkpt lat="37.57078129" lon="-1.20846741">
<ele>52</ele>
<time>2013-08-12T20:59:51Z</time>
</trkpt>
<trkpt lat="37.57076347" lon="-1.20844223">
<ele>52</ele>
<time>2013-08-12T20:59:53Z</time>
</trkpt>
<trkpt lat="37.57074631" lon="-1.20843631">
<ele>52</ele>
<time>2013-08-12T20:59:55Z</time>
</trkpt>
<trkpt lat="37.5707257" lon="-1.20844648">
<ele>52</ele>
<time>2013-08-12T20:59:57Z</time>
</trkpt>
<trkpt lat="37.57069758" lon="-1.20845196">
<ele>51</ele>
<time>2013-08-12T20:59:59Z</time>
</trkpt>
<trkpt lat="37.57066689" lon="-1.20845701">
<ele>51</ele>
<time>2013-08-12T21:00:01Z</time>
</trkpt>
<trkpt lat="37.57063903" lon="-1.20846345">
<ele>52</ele>
<time>2013-08-12T21:00:03Z</time>
</trkpt>
<trkpt lat="37.57060884" lon="-1.20846067">
<ele>53</ele>
<time>2013-08-12T21:00:05Z</time>
</trkpt>
<trkpt lat="37.5705799" lon="-1.20845262">
<ele>52</ele>
<time>2013-08-12T21:00:07Z</time>
</trkpt>
<trkpt lat="37.57055488" lon="-1.20843788">
<ele>52</ele>
<time>2013-08-12T21:00:09Z</time>
</trkpt>
<trkpt lat="37.57053503" lon="-1.2084235">
<ele>52</ele>
<time>2013-08-12T21:00:11Z</time>
</trkpt>
<trkpt lat="37.57052151" lon="-1.20840411">
<ele>53</ele>
<time>2013-08-12T21:00:13Z</time>
</trkpt>
<trkpt lat="37.57051492" lon="-1.208391">
<ele>54</ele>
<time>2013-08-12T21:00:15Z</time>
</trkpt>
<trkpt lat="37.57051293" lon="-1.2083708">
<ele>54</ele>
<time>2013-08-12T21:00:17Z</time>
</trkpt>
<trkpt lat="37.57051568" lon="-1.20835258">
<ele>53</ele>
<time>2013-08-12T21:00:19Z</time>
</trkpt>
<trkpt lat="37.57052409" lon="-1.20832706">
<ele>54</ele>
<time>2013-08-12T21:00:21Z</time>
</trkpt>
<trkpt lat="37.57053059" lon="-1.20830787">
<ele>52</ele>
<time>2013-08-12T21:00:23Z</time>
</trkpt>
<trkpt lat="37.57054073" lon="-1.20829425">
<ele>52</ele>
<time>2013-08-12T21:00:25Z</time>
</trkpt>
<trkpt lat="37.57055235" lon="-1.20829326">
<ele>52</ele>
<time>2013-08-12T21:00:27Z</time>
</trkpt>
<trkpt lat="37.57055916" lon="-1.20829479">
<ele>51</ele>
<time>2013-08-12T21:00:29Z</time>
</trkpt>
<trkpt lat="37.5705664" lon="-1.20828572">
<ele>52</ele>
<time>2013-08-12T21:00:31Z</time>
</trkpt>
<trkpt lat="37.57057094" lon="-1.20826113">
<ele>53</ele>
<time>2013-08-12T21:00:33Z</time>
</trkpt>
<trkpt lat="37.57057358" lon="-1.20823144">
<ele>54</ele>
<time>2013-08-12T21:00:35Z</time>
</trkpt>
<trkpt lat="37.57057437" lon="-1.20820206">
<ele>54</ele>
<time>2013-08-12T21:00:37Z</time>
</trkpt>
<trkpt lat="37.57057596" lon="-1.20817488">
<ele>54</ele>
<time>2013-08-12T21:00:39Z</time>
</trkpt>
<trkpt lat="37.57057727" lon="-1.20815234">
<ele>54</ele>
<time>2013-08-12T21:00:41Z</time>
</trkpt>
<trkpt lat="37.57058367" lon="-1.20813184">
<ele>53</ele>
<time>2013-08-12T21:00:43Z</time>
</trkpt>
<trkpt lat="37.57058565" lon="-1.2081164">
<ele>53</ele>
<time>2013-08-12T21:00:45Z</time>
</trkpt>
<trkpt lat="37.57058325" lon="-1.20811252">
<ele>53</ele>
<time>2013-08-12T21:00:47Z</time>
</trkpt>
<trkpt lat="37.570584" lon="-1.20810648">
<ele>53</ele>
<time>2013-08-12T21:00:49Z</time>
</trkpt>
<trkpt lat="37.57057655" lon="-1.20811063">
<ele>53</ele>
<time>2013-08-12T21:00:51Z</time>
</trkpt>
<trkpt lat="37.57056436" lon="-1.20810869">
<ele>53</ele>
<time>2013-08-12T21:00:53Z</time>
</trkpt>
<trkpt lat="37.57056271" lon="-1.20810066">
<ele>53</ele>
<time>2013-08-12T21:00:55Z</time>
</trkpt>
<trkpt lat="37.57057009" lon="-1.20809605">
<ele>53</ele>
<time>2013-08-12T21:00:57Z</time>
</trkpt>
<trkpt lat="37.57058869" lon="-1.20810263">
<ele>52</ele>
<time>2013-08-12T21:00:59Z</time>
</trkpt>
<trkpt lat="37.5706054" lon="-1.20812899">
<ele>53</ele>
<time>2013-08-12T21:01:01Z</time>
</trkpt>
<trkpt lat="37.57060617" lon="-1.20816658">
<ele>53</ele>
<time>2013-08-12T21:01:03Z</time>
</trkpt>
<trkpt lat="37.5706006" lon="-1.20818915">
<ele>53</ele>
<time>2013-08-12T21:01:05Z</time>
</trkpt>
<trkpt lat="37.5705959" lon="-1.20820157">
<ele>53</ele>
<time>2013-08-12T21:01:07Z</time>
</trkpt>
<trkpt lat="37.5706126" lon="-1.2082006">
<ele>53</ele>
<time>2013-08-12T21:01:09Z</time>
</trkpt>
<trkpt lat="37.57063441" lon="-1.20820313">
<ele>53</ele>
<time>2013-08-12T21:01:11Z</time>
</trkpt>
<trkpt lat="37.57065088" lon="-1.20822487">
<ele>53</ele>
<time>2013-08-12T21:01:13Z</time>
</trkpt>
<trkpt lat="37.57066616" lon="-1.20824113">
<ele>53</ele>
<time>2013-08-12T21:01:15Z</time>
</trkpt>
<trkpt lat="37.57067572" lon="-1.20824865">
<ele>53</ele>
<time>2013-08-12T21:01:17Z</time>
</trkpt>
<trkpt lat="37.57068956" lon="-1.20823754">
<ele>52</ele>
<time>2013-08-12T21:01:19Z</time>
</trkpt>
<trkpt lat="37.57070159" lon="-1.20821544">
<ele>52</ele>
<time>2013-08-12T21:01:21Z</time>
</trkpt>
<trkpt lat="37.57070844" lon="-1.20819997">
<ele>52</ele>
<time>2013-08-12T21:01:23Z</time>
</trkpt>
<trkpt lat="37.57068803" lon="-1.20821211">
<ele>52</ele>
<time>2013-08-12T21:01:25Z</time>
</trkpt>
<trkpt lat="37.57065658" lon="-1.20821705">
<ele>52</ele>
<time>2013-08-12T21:01:27Z</time>
</trkpt>
<trkpt lat="37.57063355" lon="-1.20821044">
<ele>52</ele>
<time>2013-08-12T21:01:29Z</time>
</trkpt>
<trkpt lat="37.57061132" lon="-1.20820948">
<ele>52</ele>
<time>2013-08-12T21:01:31Z</time>
</trkpt>
<trkpt lat="37.5706074" lon="-1.20820064">
<ele>52</ele>
<time>2013-08-12T21:01:33Z</time>
</trkpt>
<trkpt lat="37.57060776" lon="-1.20818472">
<ele>52</ele>
<time>2013-08-12T21:01:35Z</time>
</trkpt>
<trkpt lat="37.57060246" lon="-1.20815334">
<ele>52</ele>
<time>2013-08-12T21:01:37Z</time>
</trkpt>
<trkpt lat="37.57060102" lon="-1.20811399">
<ele>52</ele>
<time>2013-08-12T21:01:39Z</time>
</trkpt>
<trkpt lat="37.57060465" lon="-1.20807824">
<ele>51</ele>
<time>2013-08-12T21:01:41Z</time>
</trkpt>
<trkpt lat="37.5706064" lon="-1.20802919">
<ele>52</ele>
<time>2013-08-12T21:01:43Z</time>
</trkpt>
<trkpt lat="37.57060436" lon="-1.20797266">
<ele>52</ele>
<time>2013-08-12T21:01:45Z</time>
</trkpt>
<trkpt lat="37.57061188" lon="-1.20791535">
<ele>52</ele>
<time>2013-08-12T21:01:47Z</time>
</trkpt>
<trkpt lat="37.57062101" lon="-1.20787282">
<ele>53</ele>
<time>2013-08-12T21:01:49Z</time>
</trkpt>
<trkpt lat="37.57063528" lon="-1.20782649">
<ele>53</ele>
<time>2013-08-12T21:01:51Z</time>
</trkpt>
<trkpt lat="37.57064717" lon="-1.20778903">
<ele>53</ele>
<time>2013-08-12T21:01:53Z</time>
</trkpt>
<trkpt lat="37.57065583" lon="-1.20776329">
<ele>53</ele>
<time>2013-08-12T21:01:55Z</time>
</trkpt>
<trkpt lat="37.57065964" lon="-1.20773006">
<ele>53</ele>
<time>2013-08-12T21:01:57Z</time>
</trkpt>
<trkpt lat="37.57066312" lon="-1.20769603">
<ele>53</ele>
<time>2013-08-12T21:01:59Z</time>
</trkpt>
<trkpt lat="37.57065879" lon="-1.20767157">
<ele>53</ele>
<time>2013-08-12T21:02:01Z</time>
</trkpt>
<trkpt lat="37.57065644" lon="-1.20765959">
<ele>53</ele>
<time>2013-08-12T21:02:03Z</time>
</trkpt>
<trkpt lat="37.57065366" lon="-1.20763491">
<ele>54</ele>
<time>2013-08-12T21:02:05Z</time>
</trkpt>
<trkpt lat="37.57065285" lon="-1.20761044">
<ele>55</ele>
<time>2013-08-12T21:02:07Z</time>
</trkpt>
<trkpt lat="37.57065276" lon="-1.20758684">
<ele>54</ele>
<time>2013-08-12T21:02:09Z</time>
</trkpt>
<trkpt lat="37.57065702" lon="-1.207555">
<ele>55</ele>
<time>2013-08-12T21:02:11Z</time>
</trkpt>
<trkpt lat="37.57066255" lon="-1.20752113">
<ele>55</ele>
<time>2013-08-12T21:02:13Z</time>
</trkpt>
<trkpt lat="37.57067025" lon="-1.20748115">
<ele>55</ele>
<time>2013-08-12T21:02:15Z</time>
</trkpt>
<trkpt lat="37.57068125" lon="-1.20744677">
<ele>55</ele>
<time>2013-08-12T21:02:17Z</time>
</trkpt>
<trkpt lat="37.57069414" lon="-1.20743">
<ele>55</ele>
<time>2013-08-12T21:02:19Z</time>
</trkpt>
<trkpt lat="37.570709" lon="-1.20740602">
<ele>56</ele>
<time>2013-08-12T21:02:21Z</time>
</trkpt>
<trkpt lat="37.57071712" lon="-1.2073828">
<ele>57</ele>
<time>2013-08-12T21:02:23Z</time>
</trkpt>
<trkpt lat="37.57073186" lon="-1.20735488">
<ele>57</ele>
<time>2013-08-12T21:02:25Z</time>
</trkpt>
<trkpt lat="37.57074903" lon="-1.20733063">
<ele>57</ele>
<time>2013-08-12T21:02:27Z</time>
</trkpt>
<trkpt lat="37.57076564" lon="-1.20731601">
<ele>57</ele>
<time>2013-08-12T21:02:29Z</time>
</trkpt>
<trkpt lat="37.57078203" lon="-1.20729713">
<ele>58</ele>
<time>2013-08-12T21:02:31Z</time>
</trkpt>
<trkpt lat="37.57079939" lon="-1.20727361">
<ele>57</ele>
<time>2013-08-12T21:02:33Z</time>
</trkpt>
<trkpt lat="37.57082431" lon="-1.20724951">
<ele>57</ele>
<time>2013-08-12T21:02:35Z</time>
</trkpt>
<trkpt lat="37.57085181" lon="-1.20721333">
<ele>57</ele>
<time>2013-08-12T21:02:37Z</time>
</trkpt>
<trkpt lat="37.57088122" lon="-1.20718729">
<ele>57</ele>
<time>2013-08-12T21:02:39Z</time>
</trkpt>
<trkpt lat="37.57089994" lon="-1.20714462">
<ele>57</ele>
<time>2013-08-12T21:02:41Z</time>
</trkpt>
<trkpt lat="37.57091841" lon="-1.20710848">
<ele>58</ele>
<time>2013-08-12T21:02:43Z</time>
</trkpt>
<trkpt lat="37.57093008" lon="-1.20707524">
<ele>58</ele>
<time>2013-08-12T21:02:45Z</time>
</trkpt>
<trkpt lat="37.5709458" lon="-1.20704619">
<ele>58</ele>
<time>2013-08-12T21:02:47Z</time>
</trkpt>
<trkpt lat="37.57095573" lon="-1.20701872">
<ele>58</ele>
<time>2013-08-12T21:02:49Z</time>
</trkpt>
<trkpt lat="37.57097133" lon="-1.20699491">
<ele>58</ele>
<time>2013-08-12T21:02:51Z</time>
</trkpt>
<trkpt lat="37.57098403" lon="-1.2069808">
<ele>59</ele>
<time>2013-08-12T21:02:53Z</time>
</trkpt>
<trkpt lat="37.57099863" lon="-1.20698311">
<ele>58</ele>
<time>2013-08-12T21:02:55Z</time>
</trkpt>
<trkpt lat="37.57101352" lon="-1.20699298">
<ele>58</ele>
<time>2013-08-12T21:02:57Z</time>
</trkpt>
<trkpt lat="37.57102776" lon="-1.20700736">
<ele>58</ele>
<time>2013-08-12T21:02:59Z</time>
</trkpt>
<trkpt lat="37.57104858" lon="-1.20702425">
<ele>57</ele>
<time>2013-08-12T21:03:01Z</time>
</trkpt>
<trkpt lat="37.57107202" lon="-1.20703692">
<ele>57</ele>
<time>2013-08-12T21:03:03Z</time>
</trkpt>
<trkpt lat="37.57110073" lon="-1.20704746">
<ele>57</ele>
<time>2013-08-12T21:03:05Z</time>
</trkpt>
<trkpt lat="37.57113592" lon="-1.20705162">
<ele>57</ele>
<time>2013-08-12T21:03:07Z</time>
</trkpt>
<trkpt lat="37.5711611" lon="-1.20705822">
<ele>57</ele>
<time>2013-08-12T21:03:09Z</time>
</trkpt>
<trkpt lat="37.57118647" lon="-1.20706629">
<ele>57</ele>
<time>2013-08-12T21:03:11Z</time>
</trkpt>
<trkpt lat="37.57121798" lon="-1.2070654">
<ele>57</ele>
<time>2013-08-12T21:03:13Z</time>
</trkpt>
<trkpt lat="37.57124599" lon="-1.20706158">
<ele>57</ele>
<time>2013-08-12T21:03:15Z</time>
</trkpt>
<trkpt lat="37.57127264" lon="-1.20705368">
<ele>56</ele>
<time>2013-08-12T21:03:17Z</time>
</trkpt>
<trkpt lat="37.57130244" lon="-1.20705248">
<ele>57</ele>
<time>2013-08-12T21:03:19Z</time>
</trkpt>
<trkpt lat="37.57133942" lon="-1.20705911">
<ele>57</ele>
<time>2013-08-12T21:03:21Z</time>
</trkpt>
<trkpt lat="37.57137689" lon="-1.207065">
<ele>58</ele>
<time>2013-08-12T21:03:23Z</time>
</trkpt>
<trkpt lat="37.57141312" lon="-1.20706721">
<ele>58</ele>
<time>2013-08-12T21:03:25Z</time>
</trkpt>
<trkpt lat="37.57145484" lon="-1.20704877">
<ele>57</ele>
<time>2013-08-12T21:03:27Z</time>
</trkpt>
<trkpt lat="37.57149498" lon="-1.2070317">
<ele>58</ele>
<time>2013-08-12T21:03:29Z</time>
</trkpt>
<trkpt lat="37.57152969" lon="-1.20702322">
<ele>59</ele>
<time>2013-08-12T21:03:31Z</time>
</trkpt>
<trkpt lat="37.57156704" lon="-1.20700738">
<ele>58</ele>
<time>2013-08-12T21:03:33Z</time>
</trkpt>
<trkpt lat="37.57160157" lon="-1.20698014">
<ele>58</ele>
<time>2013-08-12T21:03:35Z</time>
</trkpt>
<trkpt lat="37.57161825" lon="-1.2069583">
<ele>58</ele>
<time>2013-08-12T21:03:37Z</time>
</trkpt>
<trkpt lat="37.57163289" lon="-1.20693795">
<ele>58</ele>
<time>2013-08-12T21:03:39Z</time>
</trkpt>
<trkpt lat="37.57164929" lon="-1.20692552">
<ele>57</ele>
<time>2013-08-12T21:03:41Z</time>
</trkpt>
<trkpt lat="37.57166513" lon="-1.20691938">
<ele>57</ele>
<time>2013-08-12T21:03:43Z</time>
</trkpt>
<trkpt lat="37.57167575" lon="-1.20691673">
<ele>58</ele>
<time>2013-08-12T21:03:45Z</time>
</trkpt>
<trkpt lat="37.5716858" lon="-1.20690961">
<ele>58</ele>
<time>2013-08-12T21:03:47Z</time>
</trkpt>
<trkpt lat="37.57169021" lon="-1.20690213">
<ele>58</ele>
<time>2013-08-12T21:03:49Z</time>
</trkpt>
<trkpt lat="37.57169598" lon="-1.20689766">
<ele>57</ele>
<time>2013-08-12T21:03:51Z</time>
</trkpt>
<trkpt lat="37.57169548" lon="-1.20689443">
<ele>58</ele>
<time>2013-08-12T21:03:53Z</time>
</trkpt>
<trkpt lat="37.57170207" lon="-1.20688879">
<ele>58</ele>
<time>2013-08-12T21:03:55Z</time>
</trkpt>
<trkpt lat="37.57171431" lon="-1.20687583">
<ele>56</ele>
<time>2013-08-12T21:03:57Z</time>
</trkpt>
<trkpt lat="37.57171941" lon="-1.20687337">
<ele>58</ele>
<time>2013-08-12T21:03:59Z</time>
</trkpt>
<trkpt lat="37.57171161" lon="-1.20688312">
<ele>58</ele>
<time>2013-08-12T21:04:01Z</time>
</trkpt>
<trkpt lat="37.57170685" lon="-1.2068855">
<ele>57</ele>
<time>2013-08-12T21:04:03Z</time>
</trkpt>
<trkpt lat="37.57171314" lon="-1.20688448">
<ele>58</ele>
<time>2013-08-12T21:04:05Z</time>
</trkpt>
<trkpt lat="37.57171447" lon="-1.20688362">
<ele>58</ele>
<time>2013-08-12T21:04:07Z</time>
</trkpt>
<trkpt lat="37.57171677" lon="-1.20688743">
<ele>58</ele>
<time>2013-08-12T21:04:09Z</time>
</trkpt>
<trkpt lat="37.57171738" lon="-1.20688955">
<ele>58</ele>
<time>2013-08-12T21:04:11Z</time>
</trkpt>
<trkpt lat="37.57171656" lon="-1.20688849">
<ele>58</ele>
<time>2013-08-12T21:04:13Z</time>
</trkpt>
<trkpt lat="37.57171627" lon="-1.20688771">
<ele>58</ele>
<time>2013-08-12T21:04:15Z</time>
</trkpt>
<trkpt lat="37.57171628" lon="-1.20688748">
<ele>58</ele>
<time>2013-08-12T21:04:17Z</time>
</trkpt>
<trkpt lat="37.57171626" lon="-1.20688746">
<ele>58</ele>
<time>2013-08-12T21:04:19Z</time>
</trkpt>
<trkpt lat="37.5717163" lon="-1.20688744">
<ele>58</ele>
<time>2013-08-12T21:04:21Z</time>
</trkpt>
<trkpt lat="37.57171587" lon="-1.20688763">
<ele>58</ele>
<time>2013-08-12T21:04:23Z</time>
</trkpt>
<trkpt lat="37.57171464" lon="-1.20688826">
<ele>57</ele>
<time>2013-08-12T21:04:25Z</time>
</trkpt>
<trkpt lat="37.5717142" lon="-1.20688908">
<ele>58</ele>
<time>2013-08-12T21:04:27Z</time>
</trkpt>
<trkpt lat="37.57171422" lon="-1.20689001">
<ele>58</ele>
<time>2013-08-12T21:04:29Z</time>
</trkpt>
<trkpt lat="37.571714" lon="-1.20689079">
<ele>58</ele>
<time>2013-08-12T21:04:31Z</time>
</trkpt>
<trkpt lat="37.57171356" lon="-1.20689104">
<ele>58</ele>
<time>2013-08-12T21:04:33Z</time>
</trkpt>
<trkpt lat="37.57171382" lon="-1.20689151">
<ele>58</ele>
<time>2013-08-12T21:04:35Z</time>
</trkpt>
<trkpt lat="37.57171428" lon="-1.20689194">
<ele>58</ele>
<time>2013-08-12T21:04:37Z</time>
</trkpt>
<trkpt lat="37.57171432" lon="-1.20689203">
<ele>58</ele>
<time>2013-08-12T21:04:39Z</time>
</trkpt>
<trkpt lat="37.57171434" lon="-1.20689208">
<ele>58</ele>
<time>2013-08-12T21:04:41Z</time>
</trkpt>
<trkpt lat="37.57171428" lon="-1.20689213">
<ele>58</ele>
<time>2013-08-12T21:04:43Z</time>
</trkpt>
<trkpt lat="37.57171429" lon="-1.20689227">
<ele>58</ele>
<time>2013-08-12T21:04:45Z</time>
</trkpt>
<trkpt lat="37.57171423" lon="-1.20689227">
<ele>58</ele>
<time>2013-08-12T21:04:47Z</time>
</trkpt>
<trkpt lat="37.57171423" lon="-1.2068923">
<ele>58</ele>
<time>2013-08-12T21:04:49Z</time>
</trkpt>
<trkpt lat="37.57171438" lon="-1.20689245">
<ele>58</ele>
<time>2013-08-12T21:04:51Z</time>
</trkpt>
<trkpt lat="37.57171438" lon="-1.20689249">
<ele>58</ele>
<time>2013-08-12T21:04:53Z</time>
</trkpt>
<trkpt lat="37.57171428" lon="-1.20689242">
<ele>58</ele>
<time>2013-08-12T21:04:55Z</time>
</trkpt>
<trkpt lat="37.57171417" lon="-1.2068923">
<ele>58</ele>
<time>2013-08-12T21:04:57Z</time>
</trkpt>
<trkpt lat="37.57171497" lon="-1.20689288">
<ele>58</ele>
<time>2013-08-12T21:04:59Z</time>
</trkpt>
<trkpt lat="37.57171502" lon="-1.20689318">
<ele>58</ele>
<time>2013-08-12T21:05:01Z</time>
</trkpt>
<trkpt lat="37.571715" lon="-1.2068932">
<ele>58</ele>
<time>2013-08-12T21:05:03Z</time>
</trkpt>
<trkpt lat="37.571715" lon="-1.20689314">
<ele>58</ele>
<time>2013-08-12T21:05:05Z</time>
</trkpt>
<trkpt lat="37.57172959" lon="-1.20689656">
<ele>58</ele>
<time>2013-08-12T21:05:07Z</time>
</trkpt>
<trkpt lat="37.57175257" lon="-1.20690449">
<ele>57</ele>
<time>2013-08-12T21:05:09Z</time>
</trkpt>
<trkpt lat="37.5717819" lon="-1.20691556">
<ele>57</ele>
<time>2013-08-12T21:05:11Z</time>
</trkpt>
<trkpt lat="37.57181747" lon="-1.20693025">
<ele>57</ele>
<time>2013-08-12T21:05:13Z</time>
</trkpt>
<trkpt lat="37.57185416" lon="-1.20694457">
<ele>57</ele>
<time>2013-08-12T21:05:15Z</time>
</trkpt>
<trkpt lat="37.57188126" lon="-1.20694337">
<ele>57</ele>
<time>2013-08-12T21:05:17Z</time>
</trkpt>
<trkpt lat="37.57191775" lon="-1.20696366">
<ele>57</ele>
<time>2013-08-12T21:05:19Z</time>
</trkpt>
<trkpt lat="37.57195026" lon="-1.20698819">
<ele>56</ele>
<time>2013-08-12T21:05:21Z</time>
</trkpt>
<trkpt lat="37.57198202" lon="-1.20700976">
<ele>56</ele>
<time>2013-08-12T21:05:23Z</time>
</trkpt>
<trkpt lat="37.57201335" lon="-1.20703442">
<ele>56</ele>
<time>2013-08-12T21:05:25Z</time>
</trkpt>
<trkpt lat="37.57204199" lon="-1.20706295">
<ele>56</ele>
<time>2013-08-12T21:05:27Z</time>
</trkpt>
<trkpt lat="37.57206234" lon="-1.20709032">
<ele>55</ele>
<time>2013-08-12T21:05:29Z</time>
</trkpt>
<trkpt lat="37.57207922" lon="-1.20710793">
<ele>55</ele>
<time>2013-08-12T21:05:31Z</time>
</trkpt>
<trkpt lat="37.57210389" lon="-1.20713322">
<ele>56</ele>
<time>2013-08-12T21:05:33Z</time>
</trkpt>
<trkpt lat="37.57212477" lon="-1.20715291">
<ele>55</ele>
<time>2013-08-12T21:05:35Z</time>
</trkpt>
<trkpt lat="37.57215375" lon="-1.20717228">
<ele>55</ele>
<time>2013-08-12T21:05:37Z</time>
</trkpt>
<trkpt lat="37.57218192" lon="-1.20718171">
<ele>55</ele>
<time>2013-08-12T21:05:39Z</time>
</trkpt>
<trkpt lat="37.57220694" lon="-1.20720502">
<ele>55</ele>
<time>2013-08-12T21:05:41Z</time>
</trkpt>
<trkpt lat="37.57222982" lon="-1.20722945">
<ele>54</ele>
<time>2013-08-12T21:05:43Z</time>
</trkpt>
<trkpt lat="37.57225093" lon="-1.20727183">
<ele>54</ele>
<time>2013-08-12T21:05:45Z</time>
</trkpt>
<trkpt lat="37.57227256" lon="-1.20731902">
<ele>54</ele>
<time>2013-08-12T21:05:47Z</time>
</trkpt>
<trkpt lat="37.57229748" lon="-1.20736707">
<ele>54</ele>
<time>2013-08-12T21:05:49Z</time>
</trkpt>
<trkpt lat="37.57231749" lon="-1.20740699">
<ele>54</ele>
<time>2013-08-12T21:05:51Z</time>
</trkpt>
<trkpt lat="37.57233209" lon="-1.20744511">
<ele>53</ele>
<time>2013-08-12T21:05:53Z</time>
</trkpt>
<trkpt lat="37.57234725" lon="-1.20747505">
<ele>54</ele>
<time>2013-08-12T21:05:55Z</time>
</trkpt>
<trkpt lat="37.57237163" lon="-1.20750344">
<ele>53</ele>
<time>2013-08-12T21:05:57Z</time>
</trkpt>
<trkpt lat="37.57239764" lon="-1.20753385">
<ele>53</ele>
<time>2013-08-12T21:05:59Z</time>
</trkpt>
<trkpt lat="37.57241997" lon="-1.20756639">
<ele>53</ele>
<time>2013-08-12T21:06:01Z</time>
</trkpt>
<trkpt lat="37.57243562" lon="-1.20759969">
<ele>53</ele>
<time>2013-08-12T21:06:03Z</time>
</trkpt>
<trkpt lat="37.57244649" lon="-1.20763677">
<ele>53</ele>
<time>2013-08-12T21:06:05Z</time>
</trkpt>
<trkpt lat="37.57245873" lon="-1.20767609">
<ele>52</ele>
<time>2013-08-12T21:06:07Z</time>
</trkpt>
<trkpt lat="37.57247206" lon="-1.20771422">
<ele>52</ele>
<time>2013-08-12T21:06:09Z</time>
</trkpt>
<trkpt lat="37.57248826" lon="-1.2077536">
<ele>52</ele>
<time>2013-08-12T21:06:11Z</time>
</trkpt>
<trkpt lat="37.57250723" lon="-1.20779554">
<ele>51</ele>
<time>2013-08-12T21:06:13Z</time>
</trkpt>
<trkpt lat="37.57252962" lon="-1.20783106">
<ele>51</ele>
<time>2013-08-12T21:06:15Z</time>
</trkpt>
<trkpt lat="37.57255041" lon="-1.20786149">
<ele>52</ele>
<time>2013-08-12T21:06:17Z</time>
</trkpt>
<trkpt lat="37.57256156" lon="-1.20787814">
<ele>52</ele>
<time>2013-08-12T21:06:19Z</time>
</trkpt>
<trkpt lat="37.57255936" lon="-1.20789231">
<ele>52</ele>
<time>2013-08-12T21:06:21Z</time>
</trkpt>
<trkpt lat="37.57255938" lon="-1.2079197">
<ele>53</ele>
<time>2013-08-12T21:06:23Z</time>
</trkpt>
<trkpt lat="37.57255955" lon="-1.20795595">
<ele>52</ele>
<time>2013-08-12T21:06:25Z</time>
</trkpt>
<trkpt lat="37.57255406" lon="-1.20799249">
<ele>53</ele>
<time>2013-08-12T21:06:27Z</time>
</trkpt>
<trkpt lat="37.57255011" lon="-1.20802864">
<ele>54</ele>
<time>2013-08-12T21:06:29Z</time>
</trkpt>
<trkpt lat="37.5725508" lon="-1.20807821">
<ele>54</ele>
<time>2013-08-12T21:06:31Z</time>
</trkpt>
<trkpt lat="37.57255437" lon="-1.20812825">
<ele>54</ele>
<time>2013-08-12T21:06:33Z</time>
</trkpt>
<trkpt lat="37.57256104" lon="-1.20816671">
<ele>55</ele>
<time>2013-08-12T21:06:35Z</time>
</trkpt>
<trkpt lat="37.5725674" lon="-1.20819828">
<ele>56</ele>
<time>2013-08-12T21:06:37Z</time>
</trkpt>
<trkpt lat="37.57256575" lon="-1.20823342">
<ele>56</ele>
<time>2013-08-12T21:06:39Z</time>
</trkpt>
<trkpt lat="37.57255972" lon="-1.20826961">
<ele>56</ele>
<time>2013-08-12T21:06:41Z</time>
</trkpt>
<trkpt lat="37.57255465" lon="-1.20829728">
<ele>57</ele>
<time>2013-08-12T21:06:43Z</time>
</trkpt>
<trkpt lat="37.5725551" lon="-1.20833849">
<ele>57</ele>
<time>2013-08-12T21:06:45Z</time>
</trkpt>
<trkpt lat="37.57255226" lon="-1.20838987">
<ele>56</ele>
<time>2013-08-12T21:06:47Z</time>
</trkpt>
<trkpt lat="37.57255507" lon="-1.20844029">
<ele>58</ele>
<time>2013-08-12T21:06:49Z</time>
</trkpt>
<trkpt lat="37.57254722" lon="-1.20848626">
<ele>59</ele>
<time>2013-08-12T21:06:51Z</time>
</trkpt>
<trkpt lat="37.57254995" lon="-1.20851951">
<ele>60</ele>
<time>2013-08-12T21:06:53Z</time>
</trkpt>
<trkpt lat="37.57255256" lon="-1.20854519">
<ele>60</ele>
<time>2013-08-12T21:06:55Z</time>
</trkpt>
<trkpt lat="37.57254605" lon="-1.20857737">
<ele>60</ele>
<time>2013-08-12T21:06:57Z</time>
</trkpt>
<trkpt lat="37.57254429" lon="-1.20860625">
<ele>60</ele>
<time>2013-08-12T21:06:59Z</time>
</trkpt>
<trkpt lat="37.57254714" lon="-1.20864197">
<ele>60</ele>
<time>2013-08-12T21:07:01Z</time>
</trkpt>
<trkpt lat="37.5725593" lon="-1.20867739">
<ele>60</ele>
<time>2013-08-12T21:07:03Z</time>
</trkpt>
<trkpt lat="37.57257072" lon="-1.20871663">
<ele>59</ele>
<time>2013-08-12T21:07:05Z</time>
</trkpt>
<trkpt lat="37.57257142" lon="-1.20875923">
<ele>59</ele>
<time>2013-08-12T21:07:07Z</time>
</trkpt>
<trkpt lat="37.57256601" lon="-1.20880076">
<ele>58</ele>
<time>2013-08-12T21:07:09Z</time>
</trkpt>
<trkpt lat="37.57256101" lon="-1.20883899">
<ele>59</ele>
<time>2013-08-12T21:07:11Z</time>
</trkpt>
<trkpt lat="37.57255191" lon="-1.20887305">
<ele>58</ele>
<time>2013-08-12T21:07:13Z</time>
</trkpt>
<trkpt lat="37.57254111" lon="-1.2089024">
<ele>57</ele>
<time>2013-08-12T21:07:15Z</time>
</trkpt>
<trkpt lat="37.57253876" lon="-1.20893336">
<ele>57</ele>
<time>2013-08-12T21:07:17Z</time>
</trkpt>
<trkpt lat="37.57254533" lon="-1.20895896">
<ele>57</ele>
<time>2013-08-12T21:07:19Z</time>
</trkpt>
<trkpt lat="37.5725597" lon="-1.20899254">
<ele>56</ele>
<time>2013-08-12T21:07:21Z</time>
</trkpt>
<trkpt lat="37.572577" lon="-1.20903896">
<ele>56</ele>
<time>2013-08-12T21:07:23Z</time>
</trkpt>
<trkpt lat="37.5725937" lon="-1.20908821">
<ele>57</ele>
<time>2013-08-12T21:07:25Z</time>
</trkpt>
<trkpt lat="37.57260566" lon="-1.20913631">
<ele>57</ele>
<time>2013-08-12T21:07:27Z</time>
</trkpt>
<trkpt lat="37.57261432" lon="-1.20919169">
<ele>57</ele>
<time>2013-08-12T21:07:29Z</time>
</trkpt>
<trkpt lat="37.57261681" lon="-1.20923736">
<ele>57</ele>
<time>2013-08-12T21:07:31Z</time>
</trkpt>
<trkpt lat="37.57261023" lon="-1.20928185">
<ele>57</ele>
<time>2013-08-12T21:07:33Z</time>
</trkpt>
<trkpt lat="37.57259652" lon="-1.20933525">
<ele>56</ele>
<time>2013-08-12T21:07:35Z</time>
</trkpt>
<trkpt lat="37.57259273" lon="-1.20938288">
<ele>56</ele>
<time>2013-08-12T21:07:37Z</time>
</trkpt>
<trkpt lat="37.57260163" lon="-1.20943238">
<ele>55</ele>
<time>2013-08-12T21:07:39Z</time>
</trkpt>
<trkpt lat="37.57260637" lon="-1.20947977">
<ele>55</ele>
<time>2013-08-12T21:07:41Z</time>
</trkpt>
<trkpt lat="37.57260989" lon="-1.20952673">
<ele>55</ele>
<time>2013-08-12T21:07:43Z</time>
</trkpt>
<trkpt lat="37.57260913" lon="-1.20956777">
<ele>55</ele>
<time>2013-08-12T21:07:45Z</time>
</trkpt>
<trkpt lat="37.57261105" lon="-1.20961838">
<ele>56</ele>
<time>2013-08-12T21:07:47Z</time>
</trkpt>
<trkpt lat="37.57261497" lon="-1.20966521">
<ele>57</ele>
<time>2013-08-12T21:07:49Z</time>
</trkpt>
<trkpt lat="37.57262133" lon="-1.20971118">
<ele>56</ele>
<time>2013-08-12T21:07:51Z</time>
</trkpt>
<trkpt lat="37.57262792" lon="-1.20974311">
<ele>56</ele>
<time>2013-08-12T21:07:53Z</time>
</trkpt>
<trkpt lat="37.57263721" lon="-1.20977708">
<ele>55</ele>
<time>2013-08-12T21:07:55Z</time>
</trkpt>
<trkpt lat="37.57265175" lon="-1.20980871">
<ele>55</ele>
<time>2013-08-12T21:07:57Z</time>
</trkpt>
<trkpt lat="37.57266999" lon="-1.20984285">
<ele>56</ele>
<time>2013-08-12T21:07:59Z</time>
</trkpt>
<trkpt lat="37.57269372" lon="-1.20988072">
<ele>56</ele>
<time>2013-08-12T21:08:01Z</time>
</trkpt>
<trkpt lat="37.5727154" lon="-1.20992208">
<ele>56</ele>
<time>2013-08-12T21:08:03Z</time>
</trkpt>
<trkpt lat="37.57272462" lon="-1.20996296">
<ele>56</ele>
<time>2013-08-12T21:08:05Z</time>
</trkpt>
<trkpt lat="37.57272255" lon="-1.21000043">
<ele>56</ele>
<time>2013-08-12T21:08:07Z</time>
</trkpt>
<trkpt lat="37.57271909" lon="-1.21002733">
<ele>56</ele>
<time>2013-08-12T21:08:09Z</time>
</trkpt>
<trkpt lat="37.57272659" lon="-1.21004013">
<ele>56</ele>
<time>2013-08-12T21:08:11Z</time>
</trkpt>
<trkpt lat="37.57274615" lon="-1.21004851">
<ele>55</ele>
<time>2013-08-12T21:08:13Z</time>
</trkpt>
<trkpt lat="37.57276504" lon="-1.21004984">
<ele>55</ele>
<time>2013-08-12T21:08:15Z</time>
</trkpt>
<trkpt lat="37.57278797" lon="-1.21004666">
<ele>55</ele>
<time>2013-08-12T21:08:17Z</time>
</trkpt>
<trkpt lat="37.57281975" lon="-1.21005509">
<ele>55</ele>
<time>2013-08-12T21:08:19Z</time>
</trkpt>
<trkpt lat="37.57284368" lon="-1.21007289">
<ele>55</ele>
<time>2013-08-12T21:08:21Z</time>
</trkpt>
<trkpt lat="37.5728556" lon="-1.21009802">
<ele>55</ele>
<time>2013-08-12T21:08:23Z</time>
</trkpt>
<trkpt lat="37.57285932" lon="-1.21012348">
<ele>55</ele>
<time>2013-08-12T21:08:25Z</time>
</trkpt>
<trkpt lat="37.57286477" lon="-1.21014907">
<ele>55</ele>
<time>2013-08-12T21:08:27Z</time>
</trkpt>
<trkpt lat="37.57287229" lon="-1.21018438">
<ele>56</ele>
<time>2013-08-12T21:08:29Z</time>
</trkpt>
<trkpt lat="37.57288595" lon="-1.21022541">
<ele>56</ele>
<time>2013-08-12T21:08:31Z</time>
</trkpt>
<trkpt lat="37.57291082" lon="-1.21026327">
<ele>56</ele>
<time>2013-08-12T21:08:33Z</time>
</trkpt>
<trkpt lat="37.57294544" lon="-1.21030155">
<ele>56</ele>
<time>2013-08-12T21:08:35Z</time>
</trkpt>
<trkpt lat="37.57298132" lon="-1.21033149">
<ele>57</ele>
<time>2013-08-12T21:08:37Z</time>
</trkpt>
<trkpt lat="37.5730098" lon="-1.21036363">
<ele>57</ele>
<time>2013-08-12T21:08:39Z</time>
</trkpt>
<trkpt lat="37.57303462" lon="-1.21038019">
<ele>56</ele>
<time>2013-08-12T21:08:41Z</time>
</trkpt>
<trkpt lat="37.57306008" lon="-1.21039679">
<ele>56</ele>
<time>2013-08-12T21:08:43Z</time>
</trkpt>
<trkpt lat="37.57308418" lon="-1.21040448">
<ele>56</ele>
<time>2013-08-12T21:08:45Z</time>
</trkpt>
<trkpt lat="37.57310215" lon="-1.21041444">
<ele>57</ele>
<time>2013-08-12T21:08:47Z</time>
</trkpt>
<trkpt lat="37.57312299" lon="-1.21043059">
<ele>57</ele>
<time>2013-08-12T21:08:49Z</time>
</trkpt>
<trkpt lat="37.57314365" lon="-1.21044524">
<ele>57</ele>
<time>2013-08-12T21:08:51Z</time>
</trkpt>
<trkpt lat="37.57316858" lon="-1.21046756">
<ele>56</ele>
<time>2013-08-12T21:08:53Z</time>
</trkpt>
<trkpt lat="37.57320086" lon="-1.21049463">
<ele>56</ele>
<time>2013-08-12T21:08:55Z</time>
</trkpt>
<trkpt lat="37.57323345" lon="-1.21052358">
<ele>57</ele>
<time>2013-08-12T21:08:57Z</time>
</trkpt>
<trkpt lat="37.57326859" lon="-1.21054406">
<ele>57</ele>
<time>2013-08-12T21:08:59Z</time>
</trkpt>
<trkpt lat="37.5733054" lon="-1.21055517">
<ele>58</ele>
<time>2013-08-12T21:09:01Z</time>
</trkpt>
<trkpt lat="37.57334587" lon="-1.21056906">
<ele>58</ele>
<time>2013-08-12T21:09:03Z</time>
</trkpt>
<trkpt lat="37.57338721" lon="-1.21059151">
<ele>57</ele>
<time>2013-08-12T21:09:05Z</time>
</trkpt>
<trkpt lat="37.57342251" lon="-1.2106161">
<ele>58</ele>
<time>2013-08-12T21:09:07Z</time>
</trkpt>
<trkpt lat="37.57344415" lon="-1.21062465">
<ele>57</ele>
<time>2013-08-12T21:09:09Z</time>
</trkpt>
<trkpt lat="37.57347158" lon="-1.21064922">
<ele>58</ele>
<time>2013-08-12T21:09:11Z</time>
</trkpt>
<trkpt lat="37.57349068" lon="-1.2106829">
<ele>58</ele>
<time>2013-08-12T21:09:13Z</time>
</trkpt>
<trkpt lat="37.57350289" lon="-1.21071305">
<ele>57</ele>
<time>2013-08-12T21:09:15Z</time>
</trkpt>
<trkpt lat="37.5735118" lon="-1.21072291">
<ele>57</ele>
<time>2013-08-12T21:09:17Z</time>
</trkpt>
<trkpt lat="37.5735144" lon="-1.21073748">
<ele>57</ele>
<time>2013-08-12T21:09:19Z</time>
</trkpt>
<trkpt lat="37.57351934" lon="-1.21074599">
<ele>57</ele>
<time>2013-08-12T21:09:21Z</time>
</trkpt>
<trkpt lat="37.5735169" lon="-1.21074638">
<ele>57</ele>
<time>2013-08-12T21:09:23Z</time>
</trkpt>
<trkpt lat="37.5735144" lon="-1.21074743">
<ele>56</ele>
<time>2013-08-12T21:09:25Z</time>
</trkpt>
<trkpt lat="37.57349818" lon="-1.21073837">
<ele>56</ele>
<time>2013-08-12T21:09:27Z</time>
</trkpt>
<trkpt lat="37.57348146" lon="-1.21072307">
<ele>55</ele>
<time>2013-08-12T21:09:29Z</time>
</trkpt>
<trkpt lat="37.57345852" lon="-1.21071169">
<ele>54</ele>
<time>2013-08-12T21:09:31Z</time>
</trkpt>
<trkpt lat="37.57343058" lon="-1.21070312">
<ele>53</ele>
<time>2013-08-12T21:09:33Z</time>
</trkpt>
<trkpt lat="37.57340559" lon="-1.21070283">
<ele>53</ele>
<time>2013-08-12T21:09:35Z</time>
</trkpt>
<trkpt lat="37.57338312" lon="-1.2107212">
<ele>54</ele>
<time>2013-08-12T21:09:37Z</time>
</trkpt>
<trkpt lat="37.5733618" lon="-1.21072834">
<ele>54</ele>
<time>2013-08-12T21:09:39Z</time>
</trkpt>
<trkpt lat="37.57334961" lon="-1.21072288">
<ele>54</ele>
<time>2013-08-12T21:09:41Z</time>
</trkpt>
<trkpt lat="37.573338" lon="-1.21071746">
<ele>54</ele>
<time>2013-08-12T21:09:43Z</time>
</trkpt>
<trkpt lat="37.5733383" lon="-1.21071716">
<ele>54</ele>
<time>2013-08-12T21:09:45Z</time>
</trkpt>
<trkpt lat="37.57335193" lon="-1.21073115">
<ele>54</ele>
<time>2013-08-12T21:09:47Z</time>
</trkpt>
<trkpt lat="37.57336234" lon="-1.21074876">
<ele>54</ele>
<time>2013-08-12T21:09:49Z</time>
</trkpt>
<trkpt lat="37.57337464" lon="-1.21079144">
<ele>54</ele>
<time>2013-08-12T21:09:51Z</time>
</trkpt>
<trkpt lat="37.57337526" lon="-1.21083747">
<ele>54</ele>
<time>2013-08-12T21:09:53Z</time>
</trkpt>
<trkpt lat="37.57337719" lon="-1.21087919">
<ele>55</ele>
<time>2013-08-12T21:09:55Z</time>
</trkpt>
<trkpt lat="37.57338428" lon="-1.21091529">
<ele>55</ele>
<time>2013-08-12T21:09:57Z</time>
</trkpt>
<trkpt lat="37.57339649" lon="-1.21095303">
<ele>55</ele>
<time>2013-08-12T21:09:59Z</time>
</trkpt>
<trkpt lat="37.57341516" lon="-1.21098972">
<ele>55</ele>
<time>2013-08-12T21:10:01Z</time>
</trkpt>
<trkpt lat="37.57343984" lon="-1.21102368">
<ele>56</ele>
<time>2013-08-12T21:10:03Z</time>
</trkpt>
<trkpt lat="37.5734607" lon="-1.21105883">
<ele>55</ele>
<time>2013-08-12T21:10:05Z</time>
</trkpt>
<trkpt lat="37.57347961" lon="-1.21110009">
<ele>56</ele>
<time>2013-08-12T21:10:07Z</time>
</trkpt>
<trkpt lat="37.57349332" lon="-1.21113783">
<ele>56</ele>
<time>2013-08-12T21:10:09Z</time>
</trkpt>
<trkpt lat="37.57351471" lon="-1.21117208">
<ele>56</ele>
<time>2013-08-12T21:10:11Z</time>
</trkpt>
<trkpt lat="37.57354033" lon="-1.21120396">
<ele>56</ele>
<time>2013-08-12T21:10:13Z</time>
</trkpt>
<trkpt lat="37.57356326" lon="-1.2112405">
<ele>56</ele>
<time>2013-08-12T21:10:15Z</time>
</trkpt>
<trkpt lat="37.57357691" lon="-1.21124616">
<ele>56</ele>
<time>2013-08-12T21:10:17Z</time>
</trkpt>
<trkpt lat="37.57358472" lon="-1.21124803">
<ele>56</ele>
<time>2013-08-12T21:10:19Z</time>
</trkpt>
<trkpt lat="37.57359492" lon="-1.21124604">
<ele>56</ele>
<time>2013-08-12T21:10:21Z</time>
</trkpt>
<trkpt lat="37.57360663" lon="-1.21125741">
<ele>56</ele>
<time>2013-08-12T21:10:23Z</time>
</trkpt>
<trkpt lat="37.57361793" lon="-1.21127453">
<ele>56</ele>
<time>2013-08-12T21:10:25Z</time>
</trkpt>
<trkpt lat="37.57363817" lon="-1.21128631">
<ele>56</ele>
<time>2013-08-12T21:10:27Z</time>
</trkpt>
<trkpt lat="37.5736597" lon="-1.21130123">
<ele>57</ele>
<time>2013-08-12T21:10:29Z</time>
</trkpt>
<trkpt lat="37.57368994" lon="-1.21132124">
<ele>57</ele>
<time>2013-08-12T21:10:31Z</time>
</trkpt>
<trkpt lat="37.57371854" lon="-1.21133382">
<ele>57</ele>
<time>2013-08-12T21:10:33Z</time>
</trkpt>
<trkpt lat="37.57375077" lon="-1.21134327">
<ele>57</ele>
<time>2013-08-12T21:10:35Z</time>
</trkpt>
<trkpt lat="37.57378379" lon="-1.21135411">
<ele>57</ele>
<time>2013-08-12T21:10:37Z</time>
</trkpt>
<trkpt lat="37.57382198" lon="-1.21135465">
<ele>58</ele>
<time>2013-08-12T21:10:39Z</time>
</trkpt>
<trkpt lat="37.57385129" lon="-1.21134469">
<ele>57</ele>
<time>2013-08-12T21:10:41Z</time>
</trkpt>
<trkpt lat="37.57387921" lon="-1.21132789">
<ele>57</ele>
<time>2013-08-12T21:10:43Z</time>
</trkpt>
<trkpt lat="37.57390688" lon="-1.21131106">
<ele>58</ele>
<time>2013-08-12T21:10:45Z</time>
</trkpt>
<trkpt lat="37.57392983" lon="-1.21129105">
<ele>58</ele>
<time>2013-08-12T21:10:47Z</time>
</trkpt>
<trkpt lat="37.57394906" lon="-1.21126055">
<ele>59</ele>
<time>2013-08-12T21:10:49Z</time>
</trkpt>
<trkpt lat="37.57395951" lon="-1.21123696">
<ele>59</ele>
<time>2013-08-12T21:10:51Z</time>
</trkpt>
<trkpt lat="37.5739696" lon="-1.21119503">
<ele>59</ele>
<time>2013-08-12T21:10:53Z</time>
</trkpt>
<trkpt lat="37.57397502" lon="-1.21115289">
<ele>59</ele>
<time>2013-08-12T21:10:55Z</time>
</trkpt>
<trkpt lat="37.57397925" lon="-1.21111497">
<ele>59</ele>
<time>2013-08-12T21:10:57Z</time>
</trkpt>
<trkpt lat="37.57398119" lon="-1.21107349">
<ele>59</ele>
<time>2013-08-12T21:10:59Z</time>
</trkpt>
<trkpt lat="37.57398422" lon="-1.21103991">
<ele>58</ele>
<time>2013-08-12T21:11:01Z</time>
</trkpt>
<trkpt lat="37.57398507" lon="-1.21100975">
<ele>59</ele>
<time>2013-08-12T21:11:03Z</time>
</trkpt>
<trkpt lat="37.5739826" lon="-1.21098526">
<ele>59</ele>
<time>2013-08-12T21:11:05Z</time>
</trkpt>
<trkpt lat="37.57396957" lon="-1.21096456">
<ele>59</ele>
<time>2013-08-12T21:11:07Z</time>
</trkpt>
<trkpt lat="37.57395393" lon="-1.21095131">
<ele>58</ele>
<time>2013-08-12T21:11:09Z</time>
</trkpt>
<trkpt lat="37.57393787" lon="-1.21095482">
<ele>57</ele>
<time>2013-08-12T21:11:11Z</time>
</trkpt>
<trkpt lat="37.57391993" lon="-1.21095478">
<ele>56</ele>
<time>2013-08-12T21:11:13Z</time>
</trkpt>
<trkpt lat="37.5739031" lon="-1.21095403">
<ele>56</ele>
<time>2013-08-12T21:11:15Z</time>
</trkpt>
<trkpt lat="37.57388773" lon="-1.21094855">
<ele>57</ele>
<time>2013-08-12T21:11:17Z</time>
</trkpt>
<trkpt lat="37.57387431" lon="-1.21093528">
<ele>57</ele>
<time>2013-08-12T21:11:19Z</time>
</trkpt>
<trkpt lat="37.57386372" lon="-1.21091826">
<ele>57</ele>
<time>2013-08-12T21:11:21Z</time>
</trkpt>
<trkpt lat="37.57385468" lon="-1.21088728">
<ele>57</ele>
<time>2013-08-12T21:11:23Z</time>
</trkpt>
<trkpt lat="37.57384519" lon="-1.21086484">
<ele>57</ele>
<time>2013-08-12T21:11:25Z</time>
</trkpt>
<trkpt lat="37.57383651" lon="-1.2108476">
<ele>56</ele>
<time>2013-08-12T21:11:27Z</time>
</trkpt>
<trkpt lat="37.5738241" lon="-1.21083563">
<ele>57</ele>
<time>2013-08-12T21:11:29Z</time>
</trkpt>
<trkpt lat="37.57382101" lon="-1.21083089">
<ele>58</ele>
<time>2013-08-12T21:11:31Z</time>
</trkpt>
<trkpt lat="37.5738203" lon="-1.21082799">
<ele>58</ele>
<time>2013-08-12T21:11:33Z</time>
</trkpt>
<trkpt lat="37.57382632" lon="-1.21083121">
<ele>57</ele>
<time>2013-08-12T21:11:35Z</time>
</trkpt>
<trkpt lat="37.5738409" lon="-1.21084387">
<ele>58</ele>
<time>2013-08-12T21:11:37Z</time>
</trkpt>
<trkpt lat="37.57386422" lon="-1.21086199">
<ele>58</ele>
<time>2013-08-12T21:11:39Z</time>
</trkpt>
<trkpt lat="37.57388201" lon="-1.21087924">
<ele>57</ele>
<time>2013-08-12T21:11:41Z</time>
</trkpt>
<trkpt lat="37.57390216" lon="-1.21089531">
<ele>57</ele>
<time>2013-08-12T21:11:43Z</time>
</trkpt>
<trkpt lat="37.57391529" lon="-1.21091553">
<ele>57</ele>
<time>2013-08-12T21:11:45Z</time>
</trkpt>
<trkpt lat="37.57392472" lon="-1.21093105">
<ele>57</ele>
<time>2013-08-12T21:11:47Z</time>
</trkpt>
<trkpt lat="37.57393804" lon="-1.21094211">
<ele>57</ele>
<time>2013-08-12T21:11:49Z</time>
</trkpt>
<trkpt lat="37.57395031" lon="-1.21095274">
<ele>57</ele>
<time>2013-08-12T21:11:51Z</time>
</trkpt>
<trkpt lat="37.57396808" lon="-1.21097157">
<ele>58</ele>
<time>2013-08-12T21:11:53Z</time>
</trkpt>
<trkpt lat="37.57398045" lon="-1.21099812">
<ele>57</ele>
<time>2013-08-12T21:11:55Z</time>
</trkpt>
<trkpt lat="37.57398109" lon="-1.21102194">
<ele>59</ele>
<time>2013-08-12T21:11:57Z</time>
</trkpt>
<trkpt lat="37.57396713" lon="-1.21104517">
<ele>57</ele>
<time>2013-08-12T21:11:59Z</time>
</trkpt>
<trkpt lat="37.57395095" lon="-1.21107456">
<ele>57</ele>
<time>2013-08-12T21:12:01Z</time>
</trkpt>
<trkpt lat="37.57393554" lon="-1.21110705">
<ele>56</ele>
<time>2013-08-12T21:12:03Z</time>
</trkpt>
<trkpt lat="37.57392475" lon="-1.21113704">
<ele>57</ele>
<time>2013-08-12T21:12:05Z</time>
</trkpt>
<trkpt lat="37.57391133" lon="-1.21116833">
<ele>57</ele>
<time>2013-08-12T21:12:07Z</time>
</trkpt>
<trkpt lat="37.57389794" lon="-1.21119176">
<ele>58</ele>
<time>2013-08-12T21:12:09Z</time>
</trkpt>
<trkpt lat="37.5738857" lon="-1.21122716">
<ele>58</ele>
<time>2013-08-12T21:12:11Z</time>
</trkpt>
<trkpt lat="37.5738842" lon="-1.21126097">
<ele>58</ele>
<time>2013-08-12T21:12:13Z</time>
</trkpt>
<trkpt lat="37.57388686" lon="-1.2112897">
<ele>57</ele>
<time>2013-08-12T21:12:15Z</time>
</trkpt>
<trkpt lat="37.5738882" lon="-1.21131829">
<ele>57</ele>
<time>2013-08-12T21:12:17Z</time>
</trkpt>
<trkpt lat="37.57388353" lon="-1.21134852">
<ele>57</ele>
<time>2013-08-12T21:12:19Z</time>
</trkpt>
<trkpt lat="37.57387734" lon="-1.21137278">
<ele>56</ele>
<time>2013-08-12T21:12:21Z</time>
</trkpt>
<trkpt lat="37.57386269" lon="-1.21140428">
<ele>55</ele>
<time>2013-08-12T21:12:23Z</time>
</trkpt>
<trkpt lat="37.57384285" lon="-1.21143719">
<ele>56</ele>
<time>2013-08-12T21:12:25Z</time>
</trkpt>
<trkpt lat="37.5738239" lon="-1.21146089">
<ele>57</ele>
<time>2013-08-12T21:12:27Z</time>
</trkpt>
<trkpt lat="37.57380613" lon="-1.21149568">
<ele>56</ele>
<time>2013-08-12T21:12:29Z</time>
</trkpt>
<trkpt lat="37.5737908" lon="-1.21153663">
<ele>56</ele>
<time>2013-08-12T21:12:31Z</time>
</trkpt>
<trkpt lat="37.57376894" lon="-1.21158682">
<ele>56</ele>
<time>2013-08-12T21:12:33Z</time>
</trkpt>
<trkpt lat="37.57374954" lon="-1.21164453">
<ele>56</ele>
<time>2013-08-12T21:12:35Z</time>
</trkpt>
<trkpt lat="37.57372995" lon="-1.21171666">
<ele>56</ele>
<time>2013-08-12T21:12:37Z</time>
</trkpt>
<trkpt lat="37.57372042" lon="-1.21177188">
<ele>57</ele>
<time>2013-08-12T21:12:39Z</time>
</trkpt>
<trkpt lat="37.57372377" lon="-1.21180566">
<ele>56</ele>
<time>2013-08-12T21:12:41Z</time>
</trkpt>
<trkpt lat="37.57372793" lon="-1.21183494">
<ele>57</ele>
<time>2013-08-12T21:12:43Z</time>
</trkpt>
<trkpt lat="37.57373505" lon="-1.2118548">
<ele>57</ele>
<time>2013-08-12T21:12:45Z</time>
</trkpt>
<trkpt lat="37.57374439" lon="-1.21187096">
<ele>56</ele>
<time>2013-08-12T21:12:47Z</time>
</trkpt>
<trkpt lat="37.57374364" lon="-1.21188698">
<ele>56</ele>
<time>2013-08-12T21:12:49Z</time>
</trkpt>
<trkpt lat="37.57373929" lon="-1.21190343">
<ele>56</ele>
<time>2013-08-12T21:12:51Z</time>
</trkpt>
<trkpt lat="37.57374038" lon="-1.21192207">
<ele>57</ele>
<time>2013-08-12T21:12:53Z</time>
</trkpt>
<trkpt lat="37.57373811" lon="-1.2119482">
<ele>56</ele>
<time>2013-08-12T21:12:55Z</time>
</trkpt>
<trkpt lat="37.57373705" lon="-1.21198685">
<ele>55</ele>
<time>2013-08-12T21:12:57Z</time>
</trkpt>
<trkpt lat="37.57373415" lon="-1.21202295">
<ele>55</ele>
<time>2013-08-12T21:12:59Z</time>
</trkpt>
<trkpt lat="37.57374286" lon="-1.21205765">
<ele>55</ele>
<time>2013-08-12T21:13:01Z</time>
</trkpt>
<trkpt lat="37.57375227" lon="-1.21208469">
<ele>55</ele>
<time>2013-08-12T21:13:03Z</time>
</trkpt>
<trkpt lat="37.57376362" lon="-1.21211257">
<ele>55</ele>
<time>2013-08-12T21:13:05Z</time>
</trkpt>
<trkpt lat="37.57376872" lon="-1.21214668">
<ele>55</ele>
<time>2013-08-12T21:13:07Z</time>
</trkpt>
<trkpt lat="37.57377647" lon="-1.21218775">
<ele>56</ele>
<time>2013-08-12T21:13:09Z</time>
</trkpt>
<trkpt lat="37.57379861" lon="-1.21222551">
<ele>57</ele>
<time>2013-08-12T21:13:11Z</time>
</trkpt>
<trkpt lat="37.57382301" lon="-1.21225646">
<ele>56</ele>
<time>2013-08-12T21:13:13Z</time>
</trkpt>
<trkpt lat="37.57384031" lon="-1.2123004">
<ele>56</ele>
<time>2013-08-12T21:13:15Z</time>
</trkpt>
<trkpt lat="37.57385032" lon="-1.21233576">
<ele>56</ele>
<time>2013-08-12T21:13:17Z</time>
</trkpt>
<trkpt lat="37.57385759" lon="-1.21238175">
<ele>56</ele>
<time>2013-08-12T21:13:19Z</time>
</trkpt>
<trkpt lat="37.57386306" lon="-1.21242988">
<ele>56</ele>
<time>2013-08-12T21:13:21Z</time>
</trkpt>
<trkpt lat="37.57386759" lon="-1.21247734">
<ele>56</ele>
<time>2013-08-12T21:13:23Z</time>
</trkpt>
<trkpt lat="37.57386514" lon="-1.2125282">
<ele>57</ele>
<time>2013-08-12T21:13:25Z</time>
</trkpt>
<trkpt lat="37.57386142" lon="-1.21259648">
<ele>57</ele>
<time>2013-08-12T21:13:27Z</time>
</trkpt>
<trkpt lat="37.57385983" lon="-1.21265457">
<ele>57</ele>
<time>2013-08-12T21:13:29Z</time>
</trkpt>
<trkpt lat="37.57386382" lon="-1.21270811">
<ele>58</ele>
<time>2013-08-12T21:13:31Z</time>
</trkpt>
<trkpt lat="37.5738691" lon="-1.21275555">
<ele>58</ele>
<time>2013-08-12T21:13:33Z</time>
</trkpt>
<trkpt lat="37.5738761" lon="-1.21280025">
<ele>59</ele>
<time>2013-08-12T21:13:35Z</time>
</trkpt>
<trkpt lat="37.57388901" lon="-1.21284031">
<ele>59</ele>
<time>2013-08-12T21:13:37Z</time>
</trkpt>
<trkpt lat="37.57389793" lon="-1.21288259">
<ele>59</ele>
<time>2013-08-12T21:13:39Z</time>
</trkpt>
<trkpt lat="37.57391727" lon="-1.21291967">
<ele>60</ele>
<time>2013-08-12T21:13:41Z</time>
</trkpt>
<trkpt lat="37.57393569" lon="-1.21294724">
<ele>60</ele>
<time>2013-08-12T21:13:43Z</time>
</trkpt>
<trkpt lat="37.57394513" lon="-1.21297704">
<ele>61</ele>
<time>2013-08-12T21:13:45Z</time>
</trkpt>
<trkpt lat="37.57394927" lon="-1.21299453">
<ele>61</ele>
<time>2013-08-12T21:13:47Z</time>
</trkpt>
<trkpt lat="37.5739448" lon="-1.21300184">
<ele>61</ele>
<time>2013-08-12T21:13:49Z</time>
</trkpt>
<trkpt lat="37.57393656" lon="-1.21301295">
<ele>61</ele>
<time>2013-08-12T21:13:51Z</time>
</trkpt>
<trkpt lat="37.5739307" lon="-1.21302457">
<ele>60</ele>
<time>2013-08-12T21:13:53Z</time>
</trkpt>
<trkpt lat="37.57393269" lon="-1.21302838">
<ele>60</ele>
<time>2013-08-12T21:13:55Z</time>
</trkpt>
<trkpt lat="37.57392888" lon="-1.21302185">
<ele>61</ele>
<time>2013-08-12T21:13:57Z</time>
</trkpt>
<trkpt lat="37.57392861" lon="-1.21301941">
<ele>60</ele>
<time>2013-08-12T21:13:59Z</time>
</trkpt>
<trkpt lat="37.57392435" lon="-1.2130232">
<ele>61</ele>
<time>2013-08-12T21:14:01Z</time>
</trkpt>
<trkpt lat="37.57391679" lon="-1.21302602">
<ele>59</ele>
<time>2013-08-12T21:14:03Z</time>
</trkpt>
<trkpt lat="37.57390832" lon="-1.21302776">
<ele>59</ele>
<time>2013-08-12T21:14:05Z</time>
</trkpt>
<trkpt lat="37.57390588" lon="-1.21303332">
<ele>59</ele>
<time>2013-08-12T21:14:07Z</time>
</trkpt>
<trkpt lat="37.57391592" lon="-1.21303821">
<ele>59</ele>
<time>2013-08-12T21:14:09Z</time>
</trkpt>
<trkpt lat="37.57392266" lon="-1.21306765">
<ele>59</ele>
<time>2013-08-12T21:14:11Z</time>
</trkpt>
<trkpt lat="37.57392602" lon="-1.2131107">
<ele>59</ele>
<time>2013-08-12T21:14:13Z</time>
</trkpt>
<trkpt lat="37.57393981" lon="-1.21316013">
<ele>59</ele>
<time>2013-08-12T21:14:15Z</time>
</trkpt>
<trkpt lat="37.57395979" lon="-1.21320915">
<ele>59</ele>
<time>2013-08-12T21:14:17Z</time>
</trkpt>
<trkpt lat="37.57398065" lon="-1.21324486">
<ele>59</ele>
<time>2013-08-12T21:14:19Z</time>
</trkpt>
<trkpt lat="37.57401201" lon="-1.21327072">
<ele>59</ele>
<time>2013-08-12T21:14:21Z</time>
</trkpt>
<trkpt lat="37.57404521" lon="-1.21330026">
<ele>58</ele>
<time>2013-08-12T21:14:23Z</time>
</trkpt>
<trkpt lat="37.57407089" lon="-1.21332724">
<ele>59</ele>
<time>2013-08-12T21:14:25Z</time>
</trkpt>
<trkpt lat="37.57409156" lon="-1.21336059">
<ele>59</ele>
<time>2013-08-12T21:14:27Z</time>
</trkpt>
<trkpt lat="37.57410766" lon="-1.213395">
<ele>59</ele>
<time>2013-08-12T21:14:29Z</time>
</trkpt>
<trkpt lat="37.57411786" lon="-1.21344192">
<ele>59</ele>
<time>2013-08-12T21:14:31Z</time>
</trkpt>
<trkpt lat="37.57413051" lon="-1.21348922">
<ele>59</ele>
<time>2013-08-12T21:14:33Z</time>
</trkpt>
<trkpt lat="37.57414554" lon="-1.21353657">
<ele>59</ele>
<time>2013-08-12T21:14:35Z</time>
</trkpt>
<trkpt lat="37.57415867" lon="-1.21356258">
<ele>59</ele>
<time>2013-08-12T21:14:37Z</time>
</trkpt>
<trkpt lat="37.57417629" lon="-1.21359459">
<ele>58</ele>
<time>2013-08-12T21:14:39Z</time>
</trkpt>
<trkpt lat="37.57419401" lon="-1.21362107">
<ele>58</ele>
<time>2013-08-12T21:14:41Z</time>
</trkpt>
<trkpt lat="37.57420898" lon="-1.21364575">
<ele>58</ele>
<time>2013-08-12T21:14:43Z</time>
</trkpt>
<trkpt lat="37.57421989" lon="-1.21367256">
<ele>58</ele>
<time>2013-08-12T21:14:45Z</time>
</trkpt>
<trkpt lat="37.57423701" lon="-1.21369785">
<ele>58</ele>
<time>2013-08-12T21:14:47Z</time>
</trkpt>
<trkpt lat="37.57425291" lon="-1.21372458">
<ele>59</ele>
<time>2013-08-12T21:14:49Z</time>
</trkpt>
<trkpt lat="37.57426054" lon="-1.21374264">
<ele>59</ele>
<time>2013-08-12T21:14:51Z</time>
</trkpt>
<trkpt lat="37.57425642" lon="-1.21373786">
<ele>59</ele>
<time>2013-08-12T21:14:53Z</time>
</trkpt>
<trkpt lat="37.57424909" lon="-1.2137323">
<ele>58</ele>
<time>2013-08-12T21:14:55Z</time>
</trkpt>
<trkpt lat="37.57424067" lon="-1.21372385">
<ele>58</ele>
<time>2013-08-12T21:14:57Z</time>
</trkpt>
<trkpt lat="37.57423748" lon="-1.21372539">
<ele>57</ele>
<time>2013-08-12T21:14:59Z</time>
</trkpt>
<trkpt lat="37.57422878" lon="-1.21372141">
<ele>57</ele>
<time>2013-08-12T21:15:01Z</time>
</trkpt>
<trkpt lat="37.57422873" lon="-1.21372288">
<ele>58</ele>
<time>2013-08-12T21:15:03Z</time>
</trkpt>
<trkpt lat="37.57423635" lon="-1.21372681">
<ele>57</ele>
<time>2013-08-12T21:15:05Z</time>
</trkpt>
<trkpt lat="37.57424191" lon="-1.2137319">
<ele>57</ele>
<time>2013-08-12T21:15:07Z</time>
</trkpt>
<trkpt lat="37.57424898" lon="-1.2137422">
<ele>57</ele>
<time>2013-08-12T21:15:09Z</time>
</trkpt>
<trkpt lat="37.57426263" lon="-1.21376626">
<ele>57</ele>
<time>2013-08-12T21:15:11Z</time>
</trkpt>
<trkpt lat="37.57428103" lon="-1.21378864">
<ele>56</ele>
<time>2013-08-12T21:15:13Z</time>
</trkpt>
<trkpt lat="37.57429339" lon="-1.21380734">
<ele>56</ele>
<time>2013-08-12T21:15:15Z</time>
</trkpt>
<trkpt lat="37.57430215" lon="-1.21383238">
<ele>56</ele>
<time>2013-08-12T21:15:17Z</time>
</trkpt>
<trkpt lat="37.57431016" lon="-1.21385387">
<ele>57</ele>
<time>2013-08-12T21:15:19Z</time>
</trkpt>
<trkpt lat="37.57432197" lon="-1.21387662">
<ele>57</ele>
<time>2013-08-12T21:15:21Z</time>
</trkpt>
<trkpt lat="37.57433974" lon="-1.21390481">
<ele>57</ele>
<time>2013-08-12T21:15:23Z</time>
</trkpt>
<trkpt lat="37.57437021" lon="-1.21393585">
<ele>57</ele>
<time>2013-08-12T21:15:25Z</time>
</trkpt>
<trkpt lat="37.57440618" lon="-1.21396882">
<ele>57</ele>
<time>2013-08-12T21:15:27Z</time>
</trkpt>
<trkpt lat="37.57444737" lon="-1.21401373">
<ele>56</ele>
<time>2013-08-12T21:15:29Z</time>
</trkpt>
<trkpt lat="37.57448915" lon="-1.21405009">
<ele>56</ele>
<time>2013-08-12T21:15:31Z</time>
</trkpt>
<trkpt lat="37.57451614" lon="-1.21408203">
<ele>56</ele>
<time>2013-08-12T21:15:33Z</time>
</trkpt>
<trkpt lat="37.57453886" lon="-1.21411827">
<ele>56</ele>
<time>2013-08-12T21:15:35Z</time>
</trkpt>
<trkpt lat="37.57455478" lon="-1.2141538">
<ele>56</ele>
<time>2013-08-12T21:15:37Z</time>
</trkpt>
<trkpt lat="37.57457282" lon="-1.21417541">
<ele>56</ele>
<time>2013-08-12T21:15:39Z</time>
</trkpt>
<trkpt lat="37.57459566" lon="-1.21420481">
<ele>56</ele>
<time>2013-08-12T21:15:41Z</time>
</trkpt>
<trkpt lat="37.57462803" lon="-1.21423488">
<ele>56</ele>
<time>2013-08-12T21:15:43Z</time>
</trkpt>
<trkpt lat="37.57465694" lon="-1.21426718">
<ele>55</ele>
<time>2013-08-12T21:15:45Z</time>
</trkpt>
<trkpt lat="37.57467827" lon="-1.21428281">
<ele>55</ele>
<time>2013-08-12T21:15:47Z</time>
</trkpt>
<trkpt lat="37.5746999" lon="-1.21430313">
<ele>56</ele>
<time>2013-08-12T21:15:49Z</time>
</trkpt>
<trkpt lat="37.57470999" lon="-1.21431744">
<ele>56</ele>
<time>2013-08-12T21:15:51Z</time>
</trkpt>
<trkpt lat="37.57471969" lon="-1.21432938">
<ele>55</ele>
<time>2013-08-12T21:15:53Z</time>
</trkpt>
<trkpt lat="37.57473091" lon="-1.21434272">
<ele>55</ele>
<time>2013-08-12T21:15:55Z</time>
</trkpt>
<trkpt lat="37.57474743" lon="-1.21436319">
<ele>56</ele>
<time>2013-08-12T21:15:57Z</time>
</trkpt>
<trkpt lat="37.57477251" lon="-1.21439143">
<ele>56</ele>
<time>2013-08-12T21:15:59Z</time>
</trkpt>
<trkpt lat="37.57480607" lon="-1.2144342">
<ele>56</ele>
<time>2013-08-12T21:16:01Z</time>
</trkpt>
<trkpt lat="37.57483714" lon="-1.21448168">
<ele>55</ele>
<time>2013-08-12T21:16:03Z</time>
</trkpt>
<trkpt lat="37.57486339" lon="-1.21452842">
<ele>55</ele>
<time>2013-08-12T21:16:05Z</time>
</trkpt>
<trkpt lat="37.57488047" lon="-1.21457464">
<ele>54</ele>
<time>2013-08-12T21:16:07Z</time>
</trkpt>
<trkpt lat="37.57488457" lon="-1.21459928">
<ele>55</ele>
<time>2013-08-12T21:16:09Z</time>
</trkpt>
<trkpt lat="37.57490156" lon="-1.21462032">
<ele>55</ele>
<time>2013-08-12T21:16:11Z</time>
</trkpt>
<trkpt lat="37.57493035" lon="-1.21464383">
<ele>55</ele>
<time>2013-08-12T21:16:13Z</time>
</trkpt>
<trkpt lat="37.57496271" lon="-1.2146736">
<ele>55</ele>
<time>2013-08-12T21:16:15Z</time>
</trkpt>
<trkpt lat="37.57499141" lon="-1.2147014">
<ele>55</ele>
<time>2013-08-12T21:16:17Z</time>
</trkpt>
<trkpt lat="37.5750176" lon="-1.21472479">
<ele>55</ele>
<time>2013-08-12T21:16:19Z</time>
</trkpt>
<trkpt lat="37.57503428" lon="-1.21474213">
<ele>54</ele>
<time>2013-08-12T21:16:21Z</time>
</trkpt>
<trkpt lat="37.57504445" lon="-1.21475311">
<ele>54</ele>
<time>2013-08-12T21:16:23Z</time>
</trkpt>
<trkpt lat="37.57505624" lon="-1.21477009">
<ele>55</ele>
<time>2013-08-12T21:16:25Z</time>
</trkpt>
<trkpt lat="37.57507062" lon="-1.21478766">
<ele>54</ele>
<time>2013-08-12T21:16:27Z</time>
</trkpt>
<trkpt lat="37.57509688" lon="-1.21479928">
<ele>54</ele>
<time>2013-08-12T21:16:29Z</time>
</trkpt>
<trkpt lat="37.57511754" lon="-1.21480943">
<ele>54</ele>
<time>2013-08-12T21:16:31Z</time>
</trkpt>
<trkpt lat="37.57514294" lon="-1.2148177">
<ele>53</ele>
<time>2013-08-12T21:16:33Z</time>
</trkpt>
<trkpt lat="37.57516737" lon="-1.2148197">
<ele>53</ele>
<time>2013-08-12T21:16:35Z</time>
</trkpt>
<trkpt lat="37.57519094" lon="-1.21481876">
<ele>53</ele>
<time>2013-08-12T21:16:37Z</time>
</trkpt>
<trkpt lat="37.57520715" lon="-1.21481562">
<ele>53</ele>
<time>2013-08-12T21:16:39Z</time>
</trkpt>
<trkpt lat="37.57522002" lon="-1.21483709">
<ele>54</ele>
<time>2013-08-12T21:16:41Z</time>
</trkpt>
<trkpt lat="37.57523863" lon="-1.21485901">
<ele>55</ele>
<time>2013-08-12T21:16:43Z</time>
</trkpt>
<trkpt lat="37.57524327" lon="-1.21486782">
<ele>55</ele>
<time>2013-08-12T21:16:45Z</time>
</trkpt>
<trkpt lat="37.5752514" lon="-1.21488456">
<ele>55</ele>
<time>2013-08-12T21:16:47Z</time>
</trkpt>
<trkpt lat="37.57525684" lon="-1.21490464">
<ele>55</ele>
<time>2013-08-12T21:16:49Z</time>
</trkpt>
<trkpt lat="37.57526244" lon="-1.21493238">
<ele>55</ele>
<time>2013-08-12T21:16:51Z</time>
</trkpt>
<trkpt lat="37.5752699" lon="-1.21495596">
<ele>56</ele>
<time>2013-08-12T21:16:53Z</time>
</trkpt>
<trkpt lat="37.57527032" lon="-1.21496447">
<ele>56</ele>
<time>2013-08-12T21:16:55Z</time>
</trkpt>
<trkpt lat="37.5752652" lon="-1.21497705">
<ele>52</ele>
<time>2013-08-12T21:16:57Z</time>
</trkpt>
<trkpt lat="37.57525887" lon="-1.21498708">
<ele>50</ele>
<time>2013-08-12T21:16:59Z</time>
</trkpt>
<trkpt lat="37.57525851" lon="-1.21499539">
<ele>48</ele>
<time>2013-08-12T21:17:01Z</time>
</trkpt>
<trkpt lat="37.57526426" lon="-1.2149943">
<ele>48</ele>
<time>2013-08-12T21:17:03Z</time>
</trkpt>
<trkpt lat="37.57526803" lon="-1.21498528">
<ele>45</ele>
<time>2013-08-12T21:17:05Z</time>
</trkpt>
<trkpt lat="37.57527028" lon="-1.21497309">
<ele>46</ele>
<time>2013-08-12T21:17:07Z</time>
</trkpt>
<trkpt lat="37.57526895" lon="-1.21496128">
<ele>46</ele>
<time>2013-08-12T21:17:09Z</time>
</trkpt>
<trkpt lat="37.57526623" lon="-1.21494388">
<ele>48</ele>
<time>2013-08-12T21:17:11Z</time>
</trkpt>
<trkpt lat="37.57526716" lon="-1.21494734">
<ele>52</ele>
<time>2013-08-12T21:17:13Z</time>
</trkpt>
<trkpt lat="37.57526597" lon="-1.21494989">
<ele>52</ele>
<time>2013-08-12T21:17:15Z</time>
</trkpt>
<trkpt lat="37.57526255" lon="-1.21494691">
<ele>51</ele>
<time>2013-08-12T21:17:17Z</time>
</trkpt>
<trkpt lat="37.57526079" lon="-1.21494352">
<ele>52</ele>
<time>2013-08-12T21:17:19Z</time>
</trkpt>
<trkpt lat="37.57526087" lon="-1.21494359">
<ele>52</ele>
<time>2013-08-12T21:17:21Z</time>
</trkpt>
<trkpt lat="37.57525731" lon="-1.21494269">
<ele>51</ele>
<time>2013-08-12T21:17:23Z</time>
</trkpt>
<trkpt lat="37.57525483" lon="-1.2149431">
<ele>52</ele>
<time>2013-08-12T21:17:25Z</time>
</trkpt>
<trkpt lat="37.57525415" lon="-1.21494312">
<ele>52</ele>
<time>2013-08-12T21:17:27Z</time>
</trkpt>
<trkpt lat="37.57525407" lon="-1.21494306">
<ele>52</ele>
<time>2013-08-12T21:17:29Z</time>
</trkpt>
<trkpt lat="37.57525413" lon="-1.21494302">
<ele>52</ele>
<time>2013-08-12T21:17:31Z</time>
</trkpt>
<trkpt lat="37.57525415" lon="-1.21494307">
<ele>52</ele>
<time>2013-08-12T21:17:33Z</time>
</trkpt>
<trkpt lat="37.57525414" lon="-1.21494312">
<ele>52</ele>
<time>2013-08-12T21:17:35Z</time>
</trkpt>
<trkpt lat="37.57525415" lon="-1.21494316">
<ele>52</ele>
<time>2013-08-12T21:17:37Z</time>
</trkpt>
<trkpt lat="37.57525434" lon="-1.21494338">
<ele>52</ele>
<time>2013-08-12T21:17:39Z</time>
</trkpt>
<trkpt lat="37.57525447" lon="-1.21494356">
<ele>52</ele>
<time>2013-08-12T21:17:41Z</time>
</trkpt>
<trkpt lat="37.57525455" lon="-1.21494375">
<ele>51</ele>
<time>2013-08-12T21:17:43Z</time>
</trkpt>
<trkpt lat="37.57525459" lon="-1.21494405">
<ele>52</ele>
<time>2013-08-12T21:17:45Z</time>
</trkpt>
<trkpt lat="37.57525453" lon="-1.21494407">
<ele>52</ele>
<time>2013-08-12T21:17:47Z</time>
</trkpt>
<trkpt lat="37.57525457" lon="-1.21494417">
<ele>52</ele>
<time>2013-08-12T21:17:49Z</time>
</trkpt>
<trkpt lat="37.57525458" lon="-1.21494421">
<ele>52</ele>
<time>2013-08-12T21:17:51Z</time>
</trkpt>
<trkpt lat="37.57525459" lon="-1.21494423">
<ele>52</ele>
<time>2013-08-12T21:17:53Z</time>
</trkpt>
<trkpt lat="37.57525459" lon="-1.2149442">
<ele>52</ele>
<time>2013-08-12T21:17:55Z</time>
</trkpt>
<trkpt lat="37.57525459" lon="-1.21494419">
<ele>52</ele>
<time>2013-08-12T21:17:57Z</time>
</trkpt>
<trkpt lat="37.5752546" lon="-1.21494425">
<ele>52</ele>
<time>2013-08-12T21:17:59Z</time>
</trkpt>
<trkpt lat="37.57525458" lon="-1.21494427">
<ele>52</ele>
<time>2013-08-12T21:18:01Z</time>
</trkpt>
<trkpt lat="37.57525454" lon="-1.21494431">
<ele>52</ele>
<time>2013-08-12T21:18:03Z</time>
</trkpt>
<trkpt lat="37.57525458" lon="-1.21494439">
<ele>52</ele>
<time>2013-08-12T21:18:05Z</time>
</trkpt>
<trkpt lat="37.57525461" lon="-1.21494444">
<ele>52</ele>
<time>2013-08-12T21:18:07Z</time>
</trkpt>
<trkpt lat="37.57525465" lon="-1.21494453">
<ele>52</ele>
<time>2013-08-12T21:18:09Z</time>
</trkpt>
<trkpt lat="37.57525472" lon="-1.2149447">
<ele>52</ele>
<time>2013-08-12T21:18:11Z</time>
</trkpt>
<trkpt lat="37.57525474" lon="-1.21494477">
<ele>52</ele>
<time>2013-08-12T21:18:13Z</time>
</trkpt>
<trkpt lat="37.5752534" lon="-1.21494319">
<ele>52</ele>
<time>2013-08-12T21:18:15Z</time>
</trkpt>
<trkpt lat="37.57525157" lon="-1.2149411">
<ele>52</ele>
<time>2013-08-12T21:18:17Z</time>
</trkpt>
<trkpt lat="37.57525092" lon="-1.21494064">
<ele>53</ele>
<time>2013-08-12T21:18:19Z</time>
</trkpt>
<trkpt lat="37.57525056" lon="-1.21494061">
<ele>53</ele>
<time>2013-08-12T21:18:21Z</time>
</trkpt>
<trkpt lat="37.57525041" lon="-1.21494062">
<ele>53</ele>
<time>2013-08-12T21:18:23Z</time>
</trkpt>
<trkpt lat="37.57525026" lon="-1.21494073">
<ele>53</ele>
<time>2013-08-12T21:18:25Z</time>
</trkpt>
<trkpt lat="37.57525016" lon="-1.2149408">
<ele>53</ele>
<time>2013-08-12T21:18:27Z</time>
</trkpt>
<trkpt lat="37.57525" lon="-1.21494076">
<ele>53</ele>
<time>2013-08-12T21:18:29Z</time>
</trkpt>
<trkpt lat="37.57524998" lon="-1.21494072">
<ele>53</ele>
<time>2013-08-12T21:18:31Z</time>
</trkpt>
<trkpt lat="37.57525013" lon="-1.21494059">
<ele>53</ele>
<time>2013-08-12T21:18:33Z</time>
</trkpt>
<trkpt lat="37.57525018" lon="-1.21494079">
<ele>53</ele>
<time>2013-08-12T21:18:35Z</time>
</trkpt>
<trkpt lat="37.57525012" lon="-1.2149411">
<ele>53</ele>
<time>2013-08-12T21:18:37Z</time>
</trkpt>
<trkpt lat="37.57525012" lon="-1.21494121">
<ele>53</ele>
<time>2013-08-12T21:18:39Z</time>
</trkpt>
<trkpt lat="37.57525016" lon="-1.21494127">
<ele>53</ele>
<time>2013-08-12T21:18:41Z</time>
</trkpt>
<trkpt lat="37.57525015" lon="-1.21494131">
<ele>53</ele>
<time>2013-08-12T21:18:43Z</time>
</trkpt>
<trkpt lat="37.57525022" lon="-1.21494135">
<ele>53</ele>
<time>2013-08-12T21:18:45Z</time>
</trkpt>
<trkpt lat="37.57525025" lon="-1.21494129">
<ele>53</ele>
<time>2013-08-12T21:18:47Z</time>
</trkpt>
<trkpt lat="" lon="">
<ele></ele>
<time>2013-08-12TZ</time>
</trkpt>
</trkseg>
</trk>
<wpt lat="37.574004" lon="-1.212058">
	<name>wpt20:46:17</name>
	<desc></desc>
	<cmt></cmt>
	<photoid>1376333177629</photoid>
	<type>1</type>
</wpt>
<wpt lat="
37.573902" lon="-1.212058">
	<name>wpt20:46:58</name>
	<desc></desc>
	<cmt></cmt>
	<photoid>1376333218519</photoid>
	<type>1</type>
</wpt>
<wpt lat="
37.573902" lon="-1.212058">
	<name>wpt20:47:41</name>
	<desc></desc>
	<cmt></cmt>
	<photoid>1376333261839</photoid>
	<type>1</type>
</wpt>
<wpt lat="
" lon="">
	<name></name>
	<desc></desc>
	<cmt></cmt>
	<photoid></photoid>
	<type></type>
</wpt>
</gpx>
